<?xml version="1.0" encoding="UTF-8" standalone="no" ?>
<gpx xmlns="http://www.topografix.com/GPX/1/1" xmlns:xsi="http://www.w3.org/2001/XMLSchema-instance" xsi:schemaLocation="http://www.topografix.com/GPX/1/1 http://www.topografix.com/GPX/1/1/gpx.xsd" version="1.1" creator="VisuGPX - https://www.visugpx.com">
  <metadata>
    <name>Breuillet</name>
  </metadata>
  <trk>
    <name><![CDATA[randogps17-280]]></name>
    <trkseg>
      <trkpt lat="45.69112" lon="-1.05301">
        <ele>74.94</ele>
        <time>2015-11-26T13:02:20Z</time>
      </trkpt>
      <trkpt lat="45.691" lon="-1.05298">
        <ele>28</ele>
      </trkpt>
      <trkpt lat="45.69088" lon="-1.05296">
        <ele>28</ele>
      </trkpt>
      <trkpt lat="45.69035" lon="-1.05335">
        <ele>27.9</ele>
      </trkpt>
      <trkpt lat="45.69019" lon="-1.05303">
        <ele>28</ele>
      </trkpt>
      <trkpt lat="45.69007" lon="-1.05272">
        <ele>28.2</ele>
      </trkpt>
      <trkpt lat="45.68996" lon="-1.05221">
        <ele>76.19</ele>
        <time>2015-11-26T13:02:28Z</time>
      </trkpt>
      <trkpt lat="45.68992" lon="-1.05206">
        <ele>76</ele>
        <time>2015-11-26T13:02:36Z</time>
      </trkpt>
      <trkpt lat="45.68985" lon="-1.052">
        <ele>76</ele>
        <time>2015-11-26T13:02:43Z</time>
      </trkpt>
      <trkpt lat="45.68978" lon="-1.05193">
        <ele>76</ele>
        <time>2015-11-26T13:02:50Z</time>
      </trkpt>
      <trkpt lat="45.68971" lon="-1.05185">
        <ele>76</ele>
        <time>2015-11-26T13:02:58Z</time>
      </trkpt>
      <trkpt lat="45.68966" lon="-1.05177">
        <ele>75.29</ele>
        <time>2015-11-26T13:03:05Z</time>
      </trkpt>
      <trkpt lat="45.68957" lon="-1.05168">
        <ele>76</ele>
        <time>2015-11-26T13:03:13Z</time>
      </trkpt>
      <trkpt lat="45.68951" lon="-1.0516">
        <ele>77</ele>
        <time>2015-11-26T13:03:20Z</time>
      </trkpt>
      <trkpt lat="45.68944" lon="-1.0515">
        <ele>78</ele>
        <time>2015-11-26T13:03:28Z</time>
      </trkpt>
      <trkpt lat="45.6894" lon="-1.05143">
        <ele>76</ele>
        <time>2015-11-26T13:03:35Z</time>
      </trkpt>
      <trkpt lat="45.68933" lon="-1.05132">
        <ele>76.94</ele>
        <time>2015-11-26T13:03:43Z</time>
      </trkpt>
      <trkpt lat="45.68928" lon="-1.05119">
        <ele>76.01</ele>
        <time>2015-11-26T13:03:51Z</time>
      </trkpt>
      <trkpt lat="45.68924" lon="-1.0511">
        <ele>76.02</ele>
        <time>2015-11-26T13:03:58Z</time>
      </trkpt>
      <trkpt lat="45.6892" lon="-1.05098">
        <ele>77</ele>
        <time>2015-11-26T13:04:05Z</time>
      </trkpt>
      <trkpt lat="45.68916" lon="-1.05086">
        <ele>77</ele>
        <time>2015-11-26T13:04:13Z</time>
      </trkpt>
      <trkpt lat="45.68913" lon="-1.05072">
        <ele>76</ele>
        <time>2015-11-26T13:04:21Z</time>
      </trkpt>
      <trkpt lat="45.68911" lon="-1.05061">
        <ele>75.81</ele>
        <time>2015-11-26T13:04:28Z</time>
      </trkpt>
      <trkpt lat="45.68908" lon="-1.05048">
        <ele>76</ele>
        <time>2015-11-26T13:04:36Z</time>
      </trkpt>
      <trkpt lat="45.68906" lon="-1.05035">
        <ele>77</ele>
        <time>2015-11-26T13:04:44Z</time>
      </trkpt>
      <trkpt lat="45.68903" lon="-1.05021">
        <ele>78</ele>
        <time>2015-11-26T13:04:52Z</time>
      </trkpt>
      <trkpt lat="45.68902" lon="-1.05011">
        <ele>78</ele>
        <time>2015-11-26T13:04:59Z</time>
      </trkpt>
      <trkpt lat="45.68898" lon="-1.04997">
        <ele>77</ele>
        <time>2015-11-26T13:05:07Z</time>
      </trkpt>
      <trkpt lat="45.68896" lon="-1.04984">
        <ele>77</ele>
        <time>2015-11-26T13:05:14Z</time>
      </trkpt>
      <trkpt lat="45.68895" lon="-1.0497">
        <ele>76.25</ele>
        <time>2015-11-26T13:05:22Z</time>
      </trkpt>
      <trkpt lat="45.68893" lon="-1.04959">
        <ele>76</ele>
        <time>2015-11-26T13:05:29Z</time>
      </trkpt>
      <trkpt lat="45.68891" lon="-1.04945">
        <ele>76</ele>
        <time>2015-11-26T13:05:37Z</time>
      </trkpt>
      <trkpt lat="45.68889" lon="-1.04932">
        <ele>75.81</ele>
        <time>2015-11-26T13:05:45Z</time>
      </trkpt>
      <trkpt lat="45.68888" lon="-1.04916">
        <ele>75.94</ele>
        <time>2015-11-26T13:05:53Z</time>
      </trkpt>
      <trkpt lat="45.68886" lon="-1.04904">
        <ele>76</ele>
        <time>2015-11-26T13:06:00Z</time>
      </trkpt>
      <trkpt lat="45.68884" lon="-1.04891">
        <ele>76</ele>
        <time>2015-11-26T13:06:08Z</time>
      </trkpt>
      <trkpt lat="45.68882" lon="-1.04879">
        <ele>76.99</ele>
        <time>2015-11-26T13:06:15Z</time>
      </trkpt>
      <trkpt lat="45.68881" lon="-1.04865">
        <ele>78.75</ele>
        <time>2015-11-26T13:06:23Z</time>
      </trkpt>
      <trkpt lat="45.68879" lon="-1.04851">
        <ele>78.76</ele>
        <time>2015-11-26T13:06:31Z</time>
      </trkpt>
      <trkpt lat="45.68878" lon="-1.04841">
        <ele>79</ele>
        <time>2015-11-26T13:06:38Z</time>
      </trkpt>
      <trkpt lat="45.68875" lon="-1.04829">
        <ele>79</ele>
        <time>2015-11-26T13:06:46Z</time>
      </trkpt>
      <trkpt lat="45.68873" lon="-1.04818">
        <ele>79</ele>
        <time>2015-11-26T13:06:53Z</time>
      </trkpt>
      <trkpt lat="45.6887" lon="-1.0481">
        <ele>79</ele>
        <time>2015-11-26T13:07:00Z</time>
      </trkpt>
      <trkpt lat="45.68864" lon="-1.04799">
        <ele>78.81</ele>
        <time>2015-11-26T13:07:08Z</time>
      </trkpt>
      <trkpt lat="45.68854" lon="-1.04779">
        <ele>28</ele>
      </trkpt>
      <trkpt lat="45.68836" lon="-1.0476">
        <ele>27.835938</ele>
      </trkpt>
      <trkpt lat="45.68808" lon="-1.04742">
        <ele>27.152344</ele>
      </trkpt>
      <trkpt lat="45.68789" lon="-1.04717">
        <ele>26.359375</ele>
      </trkpt>
      <trkpt lat="45.68775" lon="-1.04683">
        <ele>26.054688</ele>
      </trkpt>
      <trkpt lat="45.68761" lon="-1.04572">
        <ele>25.609375</ele>
      </trkpt>
      <trkpt lat="45.68741" lon="-1.04481">
        <ele>25.46875</ele>
      </trkpt>
      <trkpt lat="45.68705" lon="-1.04376">
        <ele>25.625</ele>
      </trkpt>
      <trkpt lat="45.68687" lon="-1.0433">
        <ele>25.4375</ele>
      </trkpt>
      <trkpt lat="45.6866" lon="-1.04239">
        <ele>25.992188</ele>
      </trkpt>
      <trkpt lat="45.68633" lon="-1.04136">
        <ele>25.09375</ele>
      </trkpt>
      <trkpt lat="45.68621" lon="-1.04094">
        <ele>24.953125</ele>
      </trkpt>
      <trkpt lat="45.6861" lon="-1.04067">
        <ele>25</ele>
      </trkpt>
      <trkpt lat="45.68572" lon="-1.03971">
        <ele>24.867188</ele>
      </trkpt>
      <trkpt lat="45.68558" lon="-1.03938">
        <ele>25.414062</ele>
      </trkpt>
      <trkpt lat="45.68543" lon="-1.03899">
        <ele>25.0625</ele>
      </trkpt>
      <trkpt lat="45.68537" lon="-1.03876">
        <ele>24.859375</ele>
      </trkpt>
      <trkpt lat="45.68524" lon="-1.03825">
        <ele>24.863281</ele>
      </trkpt>
      <trkpt lat="45.68518" lon="-1.03804">
        <ele>25.09375</ele>
      </trkpt>
      <trkpt lat="45.68508" lon="-1.03773">
        <ele>25.800781</ele>
      </trkpt>
      <trkpt lat="45.68499" lon="-1.03754">
        <ele>26.308594</ele>
      </trkpt>
      <trkpt lat="45.68488" lon="-1.0374">
        <ele>26.734375</ele>
      </trkpt>
      <trkpt lat="45.68482" lon="-1.03735">
        <ele>26.941406</ele>
      </trkpt>
      <trkpt lat="45.68476" lon="-1.03734">
        <ele>27.230469</ele>
      </trkpt>
      <trkpt lat="45.68469" lon="-1.03734">
        <ele>27.5625</ele>
      </trkpt>
      <trkpt lat="45.6846" lon="-1.03738">
        <ele>28</ele>
      </trkpt>
      <trkpt lat="45.68436" lon="-1.03759">
        <ele>29.089844</ele>
      </trkpt>
      <trkpt lat="45.68412" lon="-1.03785">
        <ele>30.109375</ele>
      </trkpt>
      <trkpt lat="45.68381" lon="-1.03815">
        <ele>31</ele>
      </trkpt>
      <trkpt lat="45.6835" lon="-1.03845">
        <ele>30.859375</ele>
      </trkpt>
      <trkpt lat="45.68333" lon="-1.03861">
        <ele>30.933594</ele>
      </trkpt>
      <trkpt lat="45.68315" lon="-1.03879">
        <ele>30.5625</ele>
      </trkpt>
      <trkpt lat="45.68306" lon="-1.0388">
        <ele>30.214844</ele>
      </trkpt>
      <trkpt lat="45.68301" lon="-1.03888">
        <ele>29.917969</ele>
      </trkpt>
      <trkpt lat="45.68291" lon="-1.039">
        <ele>29.335938</ele>
      </trkpt>
      <trkpt lat="45.68231" lon="-1.03938">
        <ele>27.984375</ele>
      </trkpt>
      <trkpt lat="45.68207" lon="-1.03955">
        <ele>27.851562</ele>
      </trkpt>
      <trkpt lat="45.68165" lon="-1.04023">
        <ele>26.902344</ele>
      </trkpt>
      <trkpt lat="45.68148" lon="-1.04045">
        <ele>26.089844</ele>
      </trkpt>
      <trkpt lat="45.68126" lon="-1.04057">
        <ele>25.839844</ele>
      </trkpt>
      <trkpt lat="45.68093" lon="-1.04064">
        <ele>25.710938</ele>
      </trkpt>
      <trkpt lat="45.68045" lon="-1.04065">
        <ele>25.785156</ele>
      </trkpt>
      <trkpt lat="45.68012" lon="-1.04072">
        <ele>26.246094</ele>
      </trkpt>
      <trkpt lat="45.67991" lon="-1.04084">
        <ele>26.308594</ele>
      </trkpt>
      <trkpt lat="45.67991" lon="-1.04091">
        <ele>26.167969</ele>
      </trkpt>
      <trkpt lat="45.67989" lon="-1.04099">
        <ele>25.988281</ele>
      </trkpt>
      <trkpt lat="45.67933" lon="-1.04186">
        <ele>24.101562</ele>
      </trkpt>
      <trkpt lat="45.67902" lon="-1.04232">
        <ele>24.671875</ele>
      </trkpt>
      <trkpt lat="45.67893" lon="-1.04239">
        <ele>24.832031</ele>
      </trkpt>
      <trkpt lat="45.67838" lon="-1.04321">
        <ele>25.824219</ele>
      </trkpt>
      <trkpt lat="45.67787" lon="-1.04388">
        <ele>27.863281</ele>
      </trkpt>
      <trkpt lat="45.67715" lon="-1.04476">
        <ele>30.03125</ele>
      </trkpt>
      <trkpt lat="45.67687" lon="-1.04511">
        <ele>30.351562</ele>
      </trkpt>
      <trkpt lat="45.67673" lon="-1.04528">
        <ele>30.28125</ele>
      </trkpt>
      <trkpt lat="45.67654" lon="-1.04548">
        <ele>30.125</ele>
      </trkpt>
      <trkpt lat="45.67636" lon="-1.04561">
        <ele>30.464844</ele>
      </trkpt>
      <trkpt lat="45.67614" lon="-1.0458">
        <ele>30.859375</ele>
      </trkpt>
      <trkpt lat="45.67601" lon="-1.046">
        <ele>31</ele>
      </trkpt>
      <trkpt lat="45.6758" lon="-1.04635">
        <ele>31</ele>
      </trkpt>
      <trkpt lat="45.67577" lon="-1.04648">
        <ele>31</ele>
      </trkpt>
      <trkpt lat="45.67575" lon="-1.04659">
        <ele>31</ele>
      </trkpt>
      <trkpt lat="45.67568" lon="-1.04677">
        <ele>31</ele>
      </trkpt>
      <trkpt lat="45.67553" lon="-1.04705">
        <ele>31</ele>
      </trkpt>
      <trkpt lat="45.6754" lon="-1.04729">
        <ele>31</ele>
      </trkpt>
      <trkpt lat="45.67524" lon="-1.04762">
        <ele>31</ele>
      </trkpt>
      <trkpt lat="45.67506" lon="-1.048">
        <ele>31</ele>
      </trkpt>
      <trkpt lat="45.67498" lon="-1.04812">
        <ele>31</ele>
      </trkpt>
      <trkpt lat="45.67451" lon="-1.04888">
        <ele>31</ele>
      </trkpt>
      <trkpt lat="45.67417" lon="-1.04945">
        <ele>31</ele>
      </trkpt>
      <trkpt lat="45.67349" lon="-1.05037">
        <ele>31</ele>
      </trkpt>
      <trkpt lat="45.67307" lon="-1.05089">
        <ele>30.242188</ele>
      </trkpt>
      <trkpt lat="45.67289" lon="-1.05109">
        <ele>29.878906</ele>
      </trkpt>
      <trkpt lat="45.67264" lon="-1.05132">
        <ele>73.03</ele>
        <time>2015-11-26T13:40:45Z</time>
      </trkpt>
      <trkpt lat="45.67256" lon="-1.05134">
        <ele>74.06</ele>
        <time>2015-11-26T13:40:52Z</time>
      </trkpt>
      <trkpt lat="45.67249" lon="-1.05137">
        <ele>73.01</ele>
        <time>2015-11-26T13:40:59Z</time>
      </trkpt>
      <trkpt lat="45.67241" lon="-1.0514">
        <ele>71.25</ele>
        <time>2015-11-26T13:41:07Z</time>
      </trkpt>
      <trkpt lat="45.67232" lon="-1.05142">
        <ele>68.99</ele>
        <time>2015-11-26T13:41:15Z</time>
      </trkpt>
      <trkpt lat="45.67226" lon="-1.05148">
        <ele>68.05</ele>
        <time>2015-11-26T13:41:22Z</time>
      </trkpt>
      <trkpt lat="45.67219" lon="-1.05149">
        <ele>66.31</ele>
        <time>2015-11-26T13:41:30Z</time>
      </trkpt>
      <trkpt lat="45.6721" lon="-1.05153">
        <ele>66.25</ele>
        <time>2015-11-26T13:41:37Z</time>
      </trkpt>
      <trkpt lat="45.67203" lon="-1.05157">
        <ele>64.05</ele>
        <time>2015-11-26T13:41:44Z</time>
      </trkpt>
      <trkpt lat="45.67195" lon="-1.05164">
        <ele>65.82</ele>
        <time>2015-11-26T13:41:52Z</time>
      </trkpt>
      <trkpt lat="45.67185" lon="-1.05174">
        <ele>69.99</ele>
        <time>2015-11-26T13:42:00Z</time>
      </trkpt>
      <trkpt lat="45.67178" lon="-1.0518">
        <ele>71</ele>
        <time>2015-11-26T13:42:08Z</time>
      </trkpt>
      <trkpt lat="45.67169" lon="-1.05187">
        <ele>71.99</ele>
        <time>2015-11-26T13:42:16Z</time>
      </trkpt>
      <trkpt lat="45.67162" lon="-1.05193">
        <ele>74.73</ele>
        <time>2015-11-26T13:42:23Z</time>
      </trkpt>
      <trkpt lat="45.67153" lon="-1.05198">
        <ele>74.75</ele>
        <time>2015-11-26T13:42:31Z</time>
      </trkpt>
      <trkpt lat="45.67146" lon="-1.05205">
        <ele>74.23</ele>
        <time>2015-11-26T13:42:38Z</time>
      </trkpt>
      <trkpt lat="45.67138" lon="-1.05211">
        <ele>74.19</ele>
        <time>2015-11-26T13:42:46Z</time>
      </trkpt>
      <trkpt lat="45.67131" lon="-1.05217">
        <ele>76.74</ele>
        <time>2015-11-26T13:42:53Z</time>
      </trkpt>
      <trkpt lat="45.67122" lon="-1.05223">
        <ele>77.75</ele>
        <time>2015-11-26T13:43:01Z</time>
      </trkpt>
      <trkpt lat="45.67115" lon="-1.0523">
        <ele>76.25</ele>
        <time>2015-11-26T13:43:08Z</time>
      </trkpt>
      <trkpt lat="45.67109" lon="-1.05239">
        <ele>77</ele>
        <time>2015-11-26T13:43:16Z</time>
      </trkpt>
      <trkpt lat="45.67104" lon="-1.05251">
        <ele>76</ele>
        <time>2015-11-26T13:43:24Z</time>
      </trkpt>
      <trkpt lat="45.67098" lon="-1.05261">
        <ele>76</ele>
        <time>2015-11-26T13:43:31Z</time>
      </trkpt>
      <trkpt lat="45.67092" lon="-1.05272">
        <ele>76</ele>
        <time>2015-11-26T13:43:39Z</time>
      </trkpt>
      <trkpt lat="45.67088" lon="-1.05281">
        <ele>76</ele>
        <time>2015-11-26T13:43:46Z</time>
      </trkpt>
      <trkpt lat="45.67083" lon="-1.05291">
        <ele>75.25</ele>
        <time>2015-11-26T13:43:53Z</time>
      </trkpt>
      <trkpt lat="45.67076" lon="-1.05303">
        <ele>75</ele>
        <time>2015-11-26T13:44:01Z</time>
      </trkpt>
      <trkpt lat="45.6707" lon="-1.05307">
        <ele>73.99</ele>
        <time>2015-11-26T13:44:08Z</time>
      </trkpt>
      <trkpt lat="45.67064" lon="-1.0532">
        <ele>76</ele>
        <time>2015-11-26T13:44:16Z</time>
      </trkpt>
      <trkpt lat="45.67057" lon="-1.05331">
        <ele>73.07</ele>
        <time>2015-11-26T13:44:24Z</time>
      </trkpt>
      <trkpt lat="45.67052" lon="-1.05343">
        <ele>69.96</ele>
        <time>2015-11-26T13:44:32Z</time>
      </trkpt>
      <trkpt lat="45.67047" lon="-1.05351">
        <ele>70.95</ele>
        <time>2015-11-26T13:44:39Z</time>
      </trkpt>
      <trkpt lat="45.67041" lon="-1.05363">
        <ele>75.73</ele>
        <time>2015-11-26T13:44:47Z</time>
      </trkpt>
      <trkpt lat="45.67034" lon="-1.0537">
        <ele>75</ele>
        <time>2015-11-26T13:44:54Z</time>
      </trkpt>
      <trkpt lat="45.67029" lon="-1.05381">
        <ele>72</ele>
        <time>2015-11-26T13:45:02Z</time>
      </trkpt>
      <trkpt lat="45.67023" lon="-1.05391">
        <ele>72</ele>
        <time>2015-11-26T13:45:09Z</time>
      </trkpt>
      <trkpt lat="45.67016" lon="-1.05402">
        <ele>72</ele>
        <time>2015-11-26T13:45:17Z</time>
      </trkpt>
      <trkpt lat="45.67011" lon="-1.05413">
        <ele>74.75</ele>
        <time>2015-11-26T13:45:24Z</time>
      </trkpt>
      <trkpt lat="45.67005" lon="-1.05425">
        <ele>75.75</ele>
        <time>2015-11-26T13:45:32Z</time>
      </trkpt>
      <trkpt lat="45.66998" lon="-1.05437">
        <ele>78.98</ele>
        <time>2015-11-26T13:45:40Z</time>
      </trkpt>
      <trkpt lat="45.66992" lon="-1.05449">
        <ele>78.21</ele>
        <time>2015-11-26T13:45:48Z</time>
      </trkpt>
      <trkpt lat="45.66985" lon="-1.05462">
        <ele>78.01</ele>
        <time>2015-11-26T13:45:56Z</time>
      </trkpt>
      <trkpt lat="45.6698" lon="-1.05474">
        <ele>80.99</ele>
        <time>2015-11-26T13:46:03Z</time>
      </trkpt>
      <trkpt lat="45.66975" lon="-1.05484">
        <ele>81.06</ele>
        <time>2015-11-26T13:46:10Z</time>
      </trkpt>
      <trkpt lat="45.6697" lon="-1.05495">
        <ele>81.12</ele>
        <time>2015-11-26T13:46:18Z</time>
      </trkpt>
      <trkpt lat="45.66965" lon="-1.05509">
        <ele>82.75</ele>
        <time>2015-11-26T13:46:26Z</time>
      </trkpt>
      <trkpt lat="45.66962" lon="-1.05516">
        <ele>76.05</ele>
        <time>2015-11-26T13:46:34Z</time>
      </trkpt>
      <trkpt lat="45.66958" lon="-1.0553">
        <ele>77</ele>
        <time>2015-11-26T13:46:42Z</time>
      </trkpt>
      <trkpt lat="45.66955" lon="-1.05538">
        <ele>76.75</ele>
        <time>2015-11-26T13:46:49Z</time>
      </trkpt>
      <trkpt lat="45.66952" lon="-1.05542">
        <ele>77.06</ele>
        <time>2015-11-26T13:46:59Z</time>
      </trkpt>
      <trkpt lat="45.66949" lon="-1.05549">
        <ele>77.19</ele>
        <time>2015-11-26T13:47:53Z</time>
      </trkpt>
      <trkpt lat="45.66943" lon="-1.05566">
        <ele>77</ele>
        <time>2015-11-26T13:48:01Z</time>
      </trkpt>
      <trkpt lat="45.66938" lon="-1.05578">
        <ele>76.05</ele>
        <time>2015-11-26T13:48:09Z</time>
      </trkpt>
      <trkpt lat="45.66934" lon="-1.05593">
        <ele>78.75</ele>
        <time>2015-11-26T13:48:17Z</time>
      </trkpt>
      <trkpt lat="45.66932" lon="-1.05602">
        <ele>78.98</ele>
        <time>2015-11-26T13:48:24Z</time>
      </trkpt>
      <trkpt lat="45.66929" lon="-1.05616">
        <ele>79.66</ele>
        <time>2015-11-26T13:48:32Z</time>
      </trkpt>
      <trkpt lat="45.66928" lon="-1.05627">
        <ele>81.97</ele>
        <time>2015-11-26T13:48:39Z</time>
      </trkpt>
      <trkpt lat="45.66927" lon="-1.05642">
        <ele>81.99</ele>
        <time>2015-11-26T13:48:47Z</time>
      </trkpt>
      <trkpt lat="45.66926" lon="-1.05658">
        <ele>82.23</ele>
        <time>2015-11-26T13:48:55Z</time>
      </trkpt>
      <trkpt lat="45.66927" lon="-1.05668">
        <ele>82.18</ele>
        <time>2015-11-26T13:49:02Z</time>
      </trkpt>
      <trkpt lat="45.66928" lon="-1.05682">
        <ele>80.25</ele>
        <time>2015-11-26T13:49:10Z</time>
      </trkpt>
      <trkpt lat="45.66929" lon="-1.05693">
        <ele>78.94</ele>
        <time>2015-11-26T13:49:17Z</time>
      </trkpt>
      <trkpt lat="45.66931" lon="-1.05704">
        <ele>78.07</ele>
        <time>2015-11-26T13:49:24Z</time>
      </trkpt>
      <trkpt lat="45.66933" lon="-1.05716">
        <ele>77</ele>
        <time>2015-11-26T13:49:32Z</time>
      </trkpt>
      <trkpt lat="45.66937" lon="-1.0573">
        <ele>75.25</ele>
        <time>2015-11-26T13:49:40Z</time>
      </trkpt>
      <trkpt lat="45.66943" lon="-1.05744">
        <ele>75.05</ele>
        <time>2015-11-26T13:49:48Z</time>
      </trkpt>
      <trkpt lat="45.66949" lon="-1.05753">
        <ele>77</ele>
        <time>2015-11-26T13:49:55Z</time>
      </trkpt>
      <trkpt lat="45.66955" lon="-1.05761">
        <ele>75.07</ele>
        <time>2015-11-26T13:50:03Z</time>
      </trkpt>
      <trkpt lat="45.66961" lon="-1.05771">
        <ele>73.99</ele>
        <time>2015-11-26T13:50:11Z</time>
      </trkpt>
      <trkpt lat="45.66968" lon="-1.0578">
        <ele>72.95</ele>
        <time>2015-11-26T13:50:18Z</time>
      </trkpt>
      <trkpt lat="45.66975" lon="-1.05787">
        <ele>73.99</ele>
        <time>2015-11-26T13:50:25Z</time>
      </trkpt>
      <trkpt lat="45.66981" lon="-1.05796">
        <ele>74.22</ele>
        <time>2015-11-26T13:50:33Z</time>
      </trkpt>
      <trkpt lat="45.66986" lon="-1.05805">
        <ele>75.03</ele>
        <time>2015-11-26T13:50:40Z</time>
      </trkpt>
      <trkpt lat="45.6699" lon="-1.05817">
        <ele>74.05</ele>
        <time>2015-11-26T13:50:47Z</time>
      </trkpt>
      <trkpt lat="45.66994" lon="-1.05828">
        <ele>74.75</ele>
        <time>2015-11-26T13:50:54Z</time>
      </trkpt>
      <trkpt lat="45.66997" lon="-1.0584">
        <ele>73.76</ele>
        <time>2015-11-26T13:51:02Z</time>
      </trkpt>
      <trkpt lat="45.67" lon="-1.05852">
        <ele>74.01</ele>
        <time>2015-11-26T13:51:09Z</time>
      </trkpt>
      <trkpt lat="45.67005" lon="-1.05865">
        <ele>74</ele>
        <time>2015-11-26T13:51:17Z</time>
      </trkpt>
      <trkpt lat="45.67008" lon="-1.0588">
        <ele>73.04</ele>
        <time>2015-11-26T13:51:25Z</time>
      </trkpt>
      <trkpt lat="45.6701" lon="-1.05893">
        <ele>73</ele>
        <time>2015-11-26T13:51:32Z</time>
      </trkpt>
      <trkpt lat="45.67014" lon="-1.05908">
        <ele>74</ele>
        <time>2015-11-26T13:51:40Z</time>
      </trkpt>
      <trkpt lat="45.67017" lon="-1.05919">
        <ele>74</ele>
        <time>2015-11-26T13:51:47Z</time>
      </trkpt>
      <trkpt lat="45.67022" lon="-1.05929">
        <ele>74</ele>
        <time>2015-11-26T13:51:55Z</time>
      </trkpt>
      <trkpt lat="45.67026" lon="-1.05941">
        <ele>75.74</ele>
        <time>2015-11-26T13:52:02Z</time>
      </trkpt>
      <trkpt lat="45.67033" lon="-1.05955">
        <ele>77.01</ele>
        <time>2015-11-26T13:52:10Z</time>
      </trkpt>
      <trkpt lat="45.67038" lon="-1.05964">
        <ele>76.75</ele>
        <time>2015-11-26T13:52:18Z</time>
      </trkpt>
      <trkpt lat="45.67045" lon="-1.05973">
        <ele>75.94</ele>
        <time>2015-11-26T13:52:25Z</time>
      </trkpt>
      <trkpt lat="45.67054" lon="-1.05975">
        <ele>76.25</ele>
        <time>2015-11-26T13:52:32Z</time>
      </trkpt>
      <trkpt lat="45.67064" lon="-1.05981">
        <ele>75</ele>
        <time>2015-11-26T13:52:40Z</time>
      </trkpt>
      <trkpt lat="45.67072" lon="-1.0599">
        <ele>72.75</ele>
        <time>2015-11-26T13:52:48Z</time>
      </trkpt>
      <trkpt lat="45.67079" lon="-1.05996">
        <ele>71</ele>
        <time>2015-11-26T13:52:55Z</time>
      </trkpt>
      <trkpt lat="45.67087" lon="-1.06006">
        <ele>69</ele>
        <time>2015-11-26T13:53:03Z</time>
      </trkpt>
      <trkpt lat="45.67094" lon="-1.06016">
        <ele>69.92</ele>
        <time>2015-11-26T13:53:10Z</time>
      </trkpt>
      <trkpt lat="45.67101" lon="-1.06025">
        <ele>71.05</ele>
        <time>2015-11-26T13:53:18Z</time>
      </trkpt>
      <trkpt lat="45.67103" lon="-1.06036">
        <ele>69.25</ele>
        <time>2015-11-26T13:53:25Z</time>
      </trkpt>
      <trkpt lat="45.67106" lon="-1.06052">
        <ele>71</ele>
        <time>2015-11-26T13:53:33Z</time>
      </trkpt>
      <trkpt lat="45.67109" lon="-1.06066">
        <ele>72</ele>
        <time>2015-11-26T13:53:40Z</time>
      </trkpt>
      <trkpt lat="45.67113" lon="-1.06079">
        <ele>72</ele>
        <time>2015-11-26T13:53:48Z</time>
      </trkpt>
      <trkpt lat="45.67118" lon="-1.06095">
        <ele>72.99</ele>
        <time>2015-11-26T13:53:56Z</time>
      </trkpt>
      <trkpt lat="45.67121" lon="-1.06111">
        <ele>73</ele>
        <time>2015-11-26T13:54:04Z</time>
      </trkpt>
      <trkpt lat="45.67124" lon="-1.06124">
        <ele>73.7</ele>
        <time>2015-11-26T13:54:11Z</time>
      </trkpt>
      <trkpt lat="45.67127" lon="-1.06137">
        <ele>75</ele>
        <time>2015-11-26T13:54:19Z</time>
      </trkpt>
      <trkpt lat="45.67131" lon="-1.06147">
        <ele>73.01</ele>
        <time>2015-11-26T13:54:27Z</time>
      </trkpt>
      <trkpt lat="45.67135" lon="-1.06159">
        <ele>73</ele>
        <time>2015-11-26T13:54:35Z</time>
      </trkpt>
      <trkpt lat="45.67138" lon="-1.06171">
        <ele>73</ele>
        <time>2015-11-26T13:54:43Z</time>
      </trkpt>
      <trkpt lat="45.67143" lon="-1.06185">
        <ele>73</ele>
        <time>2015-11-26T13:54:51Z</time>
      </trkpt>
      <trkpt lat="45.67146" lon="-1.06195">
        <ele>74.25</ele>
        <time>2015-11-26T13:54:59Z</time>
      </trkpt>
      <trkpt lat="45.6715" lon="-1.06209">
        <ele>74</ele>
        <time>2015-11-26T13:55:07Z</time>
      </trkpt>
      <trkpt lat="45.67153" lon="-1.0622">
        <ele>75</ele>
        <time>2015-11-26T13:55:14Z</time>
      </trkpt>
      <trkpt lat="45.67155" lon="-1.06233">
        <ele>74</ele>
        <time>2015-11-26T13:55:22Z</time>
      </trkpt>
      <trkpt lat="45.67154" lon="-1.06245">
        <ele>74.8</ele>
        <time>2015-11-26T13:55:29Z</time>
      </trkpt>
      <trkpt lat="45.67157" lon="-1.06258">
        <ele>75.25</ele>
        <time>2015-11-26T13:55:36Z</time>
      </trkpt>
      <trkpt lat="45.67158" lon="-1.06273">
        <ele>76</ele>
        <time>2015-11-26T13:55:44Z</time>
      </trkpt>
      <trkpt lat="45.6716" lon="-1.0629">
        <ele>77</ele>
        <time>2015-11-26T13:55:52Z</time>
      </trkpt>
      <trkpt lat="45.67163" lon="-1.06301">
        <ele>75</ele>
        <time>2015-11-26T13:55:59Z</time>
      </trkpt>
      <trkpt lat="45.67165" lon="-1.06314">
        <ele>75</ele>
        <time>2015-11-26T13:56:06Z</time>
      </trkpt>
      <trkpt lat="45.67169" lon="-1.06326">
        <ele>73.56</ele>
        <time>2015-11-26T13:56:14Z</time>
      </trkpt>
      <trkpt lat="45.67174" lon="-1.06333">
        <ele>70.27</ele>
        <time>2015-11-26T13:56:21Z</time>
      </trkpt>
      <trkpt lat="45.67182" lon="-1.06335">
        <ele>70.06</ele>
        <time>2015-11-26T13:56:28Z</time>
      </trkpt>
      <trkpt lat="45.67192" lon="-1.06333">
        <ele>69</ele>
        <time>2015-11-26T13:56:36Z</time>
      </trkpt>
      <trkpt lat="45.67201" lon="-1.06327">
        <ele>67.77</ele>
        <time>2015-11-26T13:56:44Z</time>
      </trkpt>
      <trkpt lat="45.67211" lon="-1.06325">
        <ele>68.06</ele>
        <time>2015-11-26T13:56:52Z</time>
      </trkpt>
      <trkpt lat="45.67219" lon="-1.06322">
        <ele>68.92</ele>
        <time>2015-11-26T13:56:59Z</time>
      </trkpt>
      <trkpt lat="45.67231" lon="-1.06316">
        <ele>69.95</ele>
        <time>2015-11-26T13:57:07Z</time>
      </trkpt>
      <trkpt lat="45.67239" lon="-1.06313">
        <ele>69</ele>
        <time>2015-11-26T13:57:14Z</time>
      </trkpt>
      <trkpt lat="45.67243" lon="-1.06308">
        <ele>67.02</ele>
        <time>2015-11-26T13:57:22Z</time>
      </trkpt>
      <trkpt lat="45.6725" lon="-1.06306">
        <ele>67.95</ele>
        <time>2015-11-26T13:57:29Z</time>
      </trkpt>
      <trkpt lat="45.67257" lon="-1.06306">
        <ele>68.33</ele>
        <time>2015-11-26T13:57:36Z</time>
      </trkpt>
      <trkpt lat="45.67273" lon="-1.06302">
        <ele>69.06</ele>
        <time>2015-11-26T13:57:44Z</time>
      </trkpt>
      <trkpt lat="45.6728" lon="-1.06299">
        <ele>69</ele>
        <time>2015-11-26T13:57:52Z</time>
      </trkpt>
      <trkpt lat="45.67286" lon="-1.06298">
        <ele>67.83</ele>
        <time>2015-11-26T13:57:59Z</time>
      </trkpt>
      <trkpt lat="45.67294" lon="-1.06299">
        <ele>68.7</ele>
        <time>2015-11-26T13:58:06Z</time>
      </trkpt>
      <trkpt lat="45.67304" lon="-1.06297">
        <ele>70.08</ele>
        <time>2015-11-26T13:58:13Z</time>
      </trkpt>
      <trkpt lat="45.67312" lon="-1.06304">
        <ele>69.75</ele>
        <time>2015-11-26T13:58:21Z</time>
      </trkpt>
      <trkpt lat="45.67317" lon="-1.06318">
        <ele>68</ele>
        <time>2015-11-26T13:58:29Z</time>
      </trkpt>
      <trkpt lat="45.6732" lon="-1.06328">
        <ele>68.94</ele>
        <time>2015-11-26T13:58:37Z</time>
      </trkpt>
      <trkpt lat="45.67322" lon="-1.0634">
        <ele>70</ele>
        <time>2015-11-26T13:58:44Z</time>
      </trkpt>
      <trkpt lat="45.67326" lon="-1.06353">
        <ele>69</ele>
        <time>2015-11-26T13:58:52Z</time>
      </trkpt>
      <trkpt lat="45.67328" lon="-1.06366">
        <ele>70</ele>
        <time>2015-11-26T13:58:59Z</time>
      </trkpt>
      <trkpt lat="45.67332" lon="-1.06376">
        <ele>70.95</ele>
        <time>2015-11-26T13:59:07Z</time>
      </trkpt>
      <trkpt lat="45.67334" lon="-1.06385">
        <ele>71</ele>
        <time>2015-11-26T13:59:14Z</time>
      </trkpt>
      <trkpt lat="45.67336" lon="-1.06398">
        <ele>71</ele>
        <time>2015-11-26T13:59:22Z</time>
      </trkpt>
      <trkpt lat="45.67338" lon="-1.06409">
        <ele>72</ele>
        <time>2015-11-26T13:59:29Z</time>
      </trkpt>
      <trkpt lat="45.67341" lon="-1.06422">
        <ele>71</ele>
        <time>2015-11-26T13:59:37Z</time>
      </trkpt>
      <trkpt lat="45.67344" lon="-1.06433">
        <ele>70.25</ele>
        <time>2015-11-26T13:59:44Z</time>
      </trkpt>
      <trkpt lat="45.67347" lon="-1.06445">
        <ele>70</ele>
        <time>2015-11-26T13:59:51Z</time>
      </trkpt>
      <trkpt lat="45.6735" lon="-1.06458">
        <ele>68.02</ele>
        <time>2015-11-26T13:59:59Z</time>
      </trkpt>
      <trkpt lat="45.67352" lon="-1.06471">
        <ele>69.01</ele>
        <time>2015-11-26T14:00:06Z</time>
      </trkpt>
      <trkpt lat="45.67353" lon="-1.06482">
        <ele>70.99</ele>
        <time>2015-11-26T14:00:13Z</time>
      </trkpt>
      <trkpt lat="45.67357" lon="-1.0649">
        <ele>71.18</ele>
        <time>2015-11-26T14:00:20Z</time>
      </trkpt>
      <trkpt lat="45.67361" lon="-1.06501">
        <ele>73</ele>
        <time>2015-11-26T14:00:28Z</time>
      </trkpt>
      <trkpt lat="45.67365" lon="-1.06512">
        <ele>73.23</ele>
        <time>2015-11-26T14:00:35Z</time>
      </trkpt>
      <trkpt lat="45.67368" lon="-1.06522">
        <ele>72.81</ele>
        <time>2015-11-26T14:00:42Z</time>
      </trkpt>
      <trkpt lat="45.67373" lon="-1.06533">
        <ele>73.2</ele>
        <time>2015-11-26T14:00:49Z</time>
      </trkpt>
      <trkpt lat="45.67379" lon="-1.06545">
        <ele>73.95</ele>
        <time>2015-11-26T14:00:57Z</time>
      </trkpt>
      <trkpt lat="45.67383" lon="-1.06556">
        <ele>74.06</ele>
        <time>2015-11-26T14:01:04Z</time>
      </trkpt>
      <trkpt lat="45.67388" lon="-1.06568">
        <ele>72.02</ele>
        <time>2015-11-26T14:01:11Z</time>
      </trkpt>
      <trkpt lat="45.67392" lon="-1.06577">
        <ele>73.98</ele>
        <time>2015-11-26T14:01:19Z</time>
      </trkpt>
      <trkpt lat="45.67396" lon="-1.06588">
        <ele>73.75</ele>
        <time>2015-11-26T14:01:26Z</time>
      </trkpt>
      <trkpt lat="45.67401" lon="-1.06601">
        <ele>73.25</ele>
        <time>2015-11-26T14:01:34Z</time>
      </trkpt>
      <trkpt lat="45.67406" lon="-1.06614">
        <ele>73.01</ele>
        <time>2015-11-26T14:01:42Z</time>
      </trkpt>
      <trkpt lat="45.67408" lon="-1.06625">
        <ele>73</ele>
        <time>2015-11-26T14:01:49Z</time>
      </trkpt>
      <trkpt lat="45.67412" lon="-1.06635">
        <ele>73.06</ele>
        <time>2015-11-26T14:01:56Z</time>
      </trkpt>
      <trkpt lat="45.67417" lon="-1.06648">
        <ele>74</ele>
        <time>2015-11-26T14:02:03Z</time>
      </trkpt>
      <trkpt lat="45.67421" lon="-1.0666">
        <ele>73.2</ele>
        <time>2015-11-26T14:02:10Z</time>
      </trkpt>
      <trkpt lat="45.67424" lon="-1.06672">
        <ele>73</ele>
        <time>2015-11-26T14:02:17Z</time>
      </trkpt>
      <trkpt lat="45.67427" lon="-1.06682">
        <ele>73.06</ele>
        <time>2015-11-26T14:02:25Z</time>
      </trkpt>
      <trkpt lat="45.67431" lon="-1.06696">
        <ele>73</ele>
        <time>2015-11-26T14:02:33Z</time>
      </trkpt>
      <trkpt lat="45.67436" lon="-1.0671">
        <ele>72.75</ele>
        <time>2015-11-26T14:02:41Z</time>
      </trkpt>
      <trkpt lat="45.67438" lon="-1.06722">
        <ele>73.94</ele>
        <time>2015-11-26T14:02:48Z</time>
      </trkpt>
      <trkpt lat="45.67441" lon="-1.06738">
        <ele>72.06</ele>
        <time>2015-11-26T14:02:56Z</time>
      </trkpt>
      <trkpt lat="45.67447" lon="-1.06748">
        <ele>71.99</ele>
        <time>2015-11-26T14:03:04Z</time>
      </trkpt>
      <trkpt lat="45.67456" lon="-1.06746">
        <ele>71.81</ele>
        <time>2015-11-26T14:03:11Z</time>
      </trkpt>
      <trkpt lat="45.67466" lon="-1.06741">
        <ele>71.05</ele>
        <time>2015-11-26T14:03:19Z</time>
      </trkpt>
      <trkpt lat="45.67476" lon="-1.06735">
        <ele>71</ele>
        <time>2015-11-26T14:03:27Z</time>
      </trkpt>
      <trkpt lat="45.67484" lon="-1.06732">
        <ele>70</ele>
        <time>2015-11-26T14:03:34Z</time>
      </trkpt>
      <trkpt lat="45.67493" lon="-1.06729">
        <ele>70</ele>
        <time>2015-11-26T14:03:42Z</time>
      </trkpt>
      <trkpt lat="45.67503" lon="-1.06725">
        <ele>71</ele>
        <time>2015-11-26T14:03:49Z</time>
      </trkpt>
      <trkpt lat="45.67512" lon="-1.06721">
        <ele>71</ele>
        <time>2015-11-26T14:03:56Z</time>
      </trkpt>
      <trkpt lat="45.67521" lon="-1.06716">
        <ele>70.02</ele>
        <time>2015-11-26T14:04:04Z</time>
      </trkpt>
      <trkpt lat="45.67533" lon="-1.06712">
        <ele>70</ele>
        <time>2015-11-26T14:04:12Z</time>
      </trkpt>
      <trkpt lat="45.67541" lon="-1.06708">
        <ele>70.05</ele>
        <time>2015-11-26T14:04:19Z</time>
      </trkpt>
      <trkpt lat="45.67549" lon="-1.06705">
        <ele>68.99</ele>
        <time>2015-11-26T14:04:26Z</time>
      </trkpt>
      <trkpt lat="45.67558" lon="-1.06699">
        <ele>68</ele>
        <time>2015-11-26T14:04:34Z</time>
      </trkpt>
      <trkpt lat="45.67568" lon="-1.06694">
        <ele>66.75</ele>
        <time>2015-11-26T14:04:42Z</time>
      </trkpt>
      <trkpt lat="45.67578" lon="-1.0669">
        <ele>67</ele>
        <time>2015-11-26T14:04:50Z</time>
      </trkpt>
      <trkpt lat="45.67587" lon="-1.06686">
        <ele>66</ele>
        <time>2015-11-26T14:04:58Z</time>
      </trkpt>
      <trkpt lat="45.67597" lon="-1.0668">
        <ele>66.06</ele>
        <time>2015-11-26T14:05:06Z</time>
      </trkpt>
      <trkpt lat="45.67606" lon="-1.06677">
        <ele>65.06</ele>
        <time>2015-11-26T14:05:13Z</time>
      </trkpt>
      <trkpt lat="45.67614" lon="-1.06675">
        <ele>63.02</ele>
        <time>2015-11-26T14:05:20Z</time>
      </trkpt>
      <trkpt lat="45.67624" lon="-1.06669">
        <ele>62.81</ele>
        <time>2015-11-26T14:05:28Z</time>
      </trkpt>
      <trkpt lat="45.67635" lon="-1.06663">
        <ele>63</ele>
        <time>2015-11-26T14:05:36Z</time>
      </trkpt>
      <trkpt lat="45.6764" lon="-1.0666">
        <ele>63</ele>
        <time>2015-11-26T14:05:45Z</time>
      </trkpt>
      <trkpt lat="45.67647" lon="-1.06657">
        <ele>62.02</ele>
        <time>2015-11-26T14:05:53Z</time>
      </trkpt>
      <trkpt lat="45.67654" lon="-1.06658">
        <ele>61.01</ele>
        <time>2015-11-26T14:11:07Z</time>
      </trkpt>
      <trkpt lat="45.67656" lon="-1.06669">
        <ele>61.75</ele>
        <time>2015-11-26T14:11:14Z</time>
      </trkpt>
      <trkpt lat="45.67653" lon="-1.06682">
        <ele>60.02</ele>
        <time>2015-11-26T14:11:22Z</time>
      </trkpt>
      <trkpt lat="45.67651" lon="-1.06693">
        <ele>59.25</ele>
        <time>2015-11-26T14:11:29Z</time>
      </trkpt>
      <trkpt lat="45.67648" lon="-1.06706">
        <ele>58.05</ele>
        <time>2015-11-26T14:11:37Z</time>
      </trkpt>
      <trkpt lat="45.67645" lon="-1.0672">
        <ele>59.19</ele>
        <time>2015-11-26T14:11:45Z</time>
      </trkpt>
      <trkpt lat="45.67641" lon="-1.06736">
        <ele>61.98</ele>
        <time>2015-11-26T14:11:53Z</time>
      </trkpt>
      <trkpt lat="45.67639" lon="-1.06749">
        <ele>62.06</ele>
        <time>2015-11-26T14:12:00Z</time>
      </trkpt>
      <trkpt lat="45.67636" lon="-1.06767">
        <ele>62</ele>
        <time>2015-11-26T14:12:08Z</time>
      </trkpt>
      <trkpt lat="45.67636" lon="-1.0678">
        <ele>61</ele>
        <time>2015-11-26T14:12:15Z</time>
      </trkpt>
      <trkpt lat="45.67636" lon="-1.06788">
        <ele>58.75</ele>
        <time>2015-11-26T14:12:22Z</time>
      </trkpt>
      <trkpt lat="45.6764" lon="-1.06803">
        <ele>59</ele>
        <time>2015-11-26T14:12:30Z</time>
      </trkpt>
      <trkpt lat="45.67644" lon="-1.06816">
        <ele>57.77</ele>
        <time>2015-11-26T14:12:38Z</time>
      </trkpt>
      <trkpt lat="45.67647" lon="-1.06829">
        <ele>59.75</ele>
        <time>2015-11-26T14:12:46Z</time>
      </trkpt>
      <trkpt lat="45.67651" lon="-1.06843">
        <ele>59.05</ele>
        <time>2015-11-26T14:12:54Z</time>
      </trkpt>
      <trkpt lat="45.67652" lon="-1.06854">
        <ele>60</ele>
        <time>2015-11-26T14:13:01Z</time>
      </trkpt>
      <trkpt lat="45.67653" lon="-1.06868">
        <ele>60</ele>
        <time>2015-11-26T14:13:09Z</time>
      </trkpt>
      <trkpt lat="45.67655" lon="-1.0688">
        <ele>61</ele>
        <time>2015-11-26T14:13:16Z</time>
      </trkpt>
      <trkpt lat="45.6766" lon="-1.06892">
        <ele>60.99</ele>
        <time>2015-11-26T14:13:24Z</time>
      </trkpt>
      <trkpt lat="45.67666" lon="-1.06901">
        <ele>59.25</ele>
        <time>2015-11-26T14:13:31Z</time>
      </trkpt>
      <trkpt lat="45.67675" lon="-1.06905">
        <ele>59.01</ele>
        <time>2015-11-26T14:13:39Z</time>
      </trkpt>
      <trkpt lat="45.67683" lon="-1.06904">
        <ele>58.06</ele>
        <time>2015-11-26T14:13:46Z</time>
      </trkpt>
      <trkpt lat="45.67692" lon="-1.069">
        <ele>56.08</ele>
        <time>2015-11-26T14:13:54Z</time>
      </trkpt>
      <trkpt lat="45.67702" lon="-1.06895">
        <ele>55.75</ele>
        <time>2015-11-26T14:14:02Z</time>
      </trkpt>
      <trkpt lat="45.67712" lon="-1.06894">
        <ele>56.05</ele>
        <time>2015-11-26T14:14:10Z</time>
      </trkpt>
      <trkpt lat="45.67721" lon="-1.0689">
        <ele>55</ele>
        <time>2015-11-26T14:14:18Z</time>
      </trkpt>
      <trkpt lat="45.67731" lon="-1.06888">
        <ele>53.07</ele>
        <time>2015-11-26T14:14:26Z</time>
      </trkpt>
      <trkpt lat="45.67739" lon="-1.06893">
        <ele>53.94</ele>
        <time>2015-11-26T14:14:34Z</time>
      </trkpt>
      <trkpt lat="45.67742" lon="-1.06902">
        <ele>54.01</ele>
        <time>2015-11-26T14:14:41Z</time>
      </trkpt>
      <trkpt lat="45.67746" lon="-1.06913">
        <ele>55.98</ele>
        <time>2015-11-26T14:14:49Z</time>
      </trkpt>
      <trkpt lat="45.67748" lon="-1.06925">
        <ele>55</ele>
        <time>2015-11-26T14:14:56Z</time>
      </trkpt>
      <trkpt lat="45.67749" lon="-1.06939">
        <ele>56</ele>
        <time>2015-11-26T14:15:04Z</time>
      </trkpt>
      <trkpt lat="45.6775" lon="-1.06949">
        <ele>56</ele>
        <time>2015-11-26T14:15:11Z</time>
      </trkpt>
      <trkpt lat="45.67752" lon="-1.06962">
        <ele>56</ele>
        <time>2015-11-26T14:15:18Z</time>
      </trkpt>
      <trkpt lat="45.67752" lon="-1.06978">
        <ele>56</ele>
        <time>2015-11-26T14:15:26Z</time>
      </trkpt>
      <trkpt lat="45.67753" lon="-1.06993">
        <ele>55</ele>
        <time>2015-11-26T14:15:34Z</time>
      </trkpt>
      <trkpt lat="45.67754" lon="-1.07007">
        <ele>54</ele>
        <time>2015-11-26T14:15:42Z</time>
      </trkpt>
      <trkpt lat="45.67755" lon="-1.07018">
        <ele>54</ele>
        <time>2015-11-26T14:15:49Z</time>
      </trkpt>
      <trkpt lat="45.67755" lon="-1.07034">
        <ele>53.81</ele>
        <time>2015-11-26T14:15:57Z</time>
      </trkpt>
      <trkpt lat="45.67755" lon="-1.0705">
        <ele>53.06</ele>
        <time>2015-11-26T14:16:05Z</time>
      </trkpt>
      <trkpt lat="45.67756" lon="-1.07064">
        <ele>53</ele>
        <time>2015-11-26T14:16:13Z</time>
      </trkpt>
      <trkpt lat="45.67756" lon="-1.07078">
        <ele>53</ele>
        <time>2015-11-26T14:16:20Z</time>
      </trkpt>
      <trkpt lat="45.67756" lon="-1.07093">
        <ele>52.94</ele>
        <time>2015-11-26T14:16:27Z</time>
      </trkpt>
      <trkpt lat="45.67755" lon="-1.07104">
        <ele>52.02</ele>
        <time>2015-11-26T14:16:35Z</time>
      </trkpt>
      <trkpt lat="45.67754" lon="-1.07123">
        <ele>52</ele>
        <time>2015-11-26T14:16:43Z</time>
      </trkpt>
      <trkpt lat="45.67755" lon="-1.0715">
        <ele>51</ele>
        <time>2015-11-26T14:16:50Z</time>
      </trkpt>
      <trkpt lat="45.67755" lon="-1.07166">
        <ele>50.2</ele>
        <time>2015-11-26T14:16:58Z</time>
      </trkpt>
      <trkpt lat="45.67759" lon="-1.07187">
        <ele>4.015625</ele>
      </trkpt>
      <trkpt lat="45.67764" lon="-1.07211">
        <ele>3.054688</ele>
      </trkpt>
      <trkpt lat="45.67768" lon="-1.07232">
        <ele>2.648438</ele>
      </trkpt>
      <trkpt lat="45.6777" lon="-1.07257">
        <ele>2.191406</ele>
      </trkpt>
      <trkpt lat="45.67768" lon="-1.07283">
        <ele>2</ele>
      </trkpt>
      <trkpt lat="45.67757" lon="-1.07394">
        <ele>2</ele>
      </trkpt>
      <trkpt lat="45.6775" lon="-1.07488">
        <ele>2.394531</ele>
      </trkpt>
      <trkpt lat="45.67744" lon="-1.07559">
        <ele>2</ele>
      </trkpt>
      <trkpt lat="45.67726" lon="-1.07775">
        <ele>0.269531</ele>
      </trkpt>
      <trkpt lat="45.67723" lon="-1.07815">
        <ele>0.867188</ele>
      </trkpt>
      <trkpt lat="45.67723" lon="-1.07829">
        <ele>1.183594</ele>
      </trkpt>
      <trkpt lat="45.67725" lon="-1.07838">
        <ele>1.449219</ele>
      </trkpt>
      <trkpt lat="45.67791" lon="-1.08005">
        <ele>1.847656</ele>
      </trkpt>
      <trkpt lat="45.67851" lon="-1.08155">
        <ele>1.589844</ele>
      </trkpt>
      <trkpt lat="45.67877" lon="-1.08213">
        <ele>1.304688</ele>
      </trkpt>
      <trkpt lat="45.67926" lon="-1.08296">
        <ele>2.085938</ele>
      </trkpt>
      <trkpt lat="45.67967" lon="-1.0836">
        <ele>2.328125</ele>
      </trkpt>
      <trkpt lat="45.67975" lon="-1.08368">
        <ele>2.285156</ele>
      </trkpt>
      <trkpt lat="45.67981" lon="-1.08356">
        <ele>2.144531</ele>
      </trkpt>
      <trkpt lat="45.67998" lon="-1.08334">
        <ele>1.945312</ele>
      </trkpt>
      <trkpt lat="45.6805" lon="-1.08284">
        <ele>1</ele>
      </trkpt>
      <trkpt lat="45.68084" lon="-1.08248">
        <ele>1.351562</ele>
      </trkpt>
      <trkpt lat="45.68283" lon="-1.08102">
        <ele>50.25</ele>
        <time>2015-11-26T14:31:53Z</time>
      </trkpt>
      <trkpt lat="45.68288" lon="-1.08095">
        <ele>51.06</ele>
        <time>2015-11-26T14:32:00Z</time>
      </trkpt>
      <trkpt lat="45.68292" lon="-1.08098">
        <ele>51</ele>
        <time>2015-11-26T14:32:07Z</time>
      </trkpt>
      <trkpt lat="45.68299" lon="-1.08112">
        <ele>51</ele>
        <time>2015-11-26T14:32:15Z</time>
      </trkpt>
      <trkpt lat="45.68305" lon="-1.08123">
        <ele>51</ele>
        <time>2015-11-26T14:32:22Z</time>
      </trkpt>
      <trkpt lat="45.68309" lon="-1.08133">
        <ele>52</ele>
        <time>2015-11-26T14:32:30Z</time>
      </trkpt>
      <trkpt lat="45.68313" lon="-1.08144">
        <ele>52.23</ele>
        <time>2015-11-26T14:32:37Z</time>
      </trkpt>
      <trkpt lat="45.68318" lon="-1.08155">
        <ele>52.98</ele>
        <time>2015-11-26T14:32:45Z</time>
      </trkpt>
      <trkpt lat="45.68321" lon="-1.08166">
        <ele>51.99</ele>
        <time>2015-11-26T14:32:52Z</time>
      </trkpt>
      <trkpt lat="45.68328" lon="-1.08179">
        <ele>53</ele>
        <time>2015-11-26T14:33:00Z</time>
      </trkpt>
      <trkpt lat="45.68337" lon="-1.08191">
        <ele>51.83</ele>
        <time>2015-11-26T14:33:08Z</time>
      </trkpt>
      <trkpt lat="45.68342" lon="-1.08201">
        <ele>52</ele>
        <time>2015-11-26T14:33:16Z</time>
      </trkpt>
      <trkpt lat="45.68347" lon="-1.08212">
        <ele>51.25</ele>
        <time>2015-11-26T14:33:23Z</time>
      </trkpt>
      <trkpt lat="45.68353" lon="-1.08222">
        <ele>52</ele>
        <time>2015-11-26T14:33:30Z</time>
      </trkpt>
      <trkpt lat="45.68357" lon="-1.08232">
        <ele>49</ele>
        <time>2015-11-26T14:33:38Z</time>
      </trkpt>
      <trkpt lat="45.68364" lon="-1.08244">
        <ele>48.06</ele>
        <time>2015-11-26T14:33:46Z</time>
      </trkpt>
      <trkpt lat="45.68371" lon="-1.08253">
        <ele>48.94</ele>
        <time>2015-11-26T14:33:53Z</time>
      </trkpt>
      <trkpt lat="45.68378" lon="-1.08263">
        <ele>49.98</ele>
        <time>2015-11-26T14:34:00Z</time>
      </trkpt>
      <trkpt lat="45.68384" lon="-1.08273">
        <ele>47.76</ele>
        <time>2015-11-26T14:34:08Z</time>
      </trkpt>
      <trkpt lat="45.68391" lon="-1.08282">
        <ele>49.75</ele>
        <time>2015-11-26T14:34:15Z</time>
      </trkpt>
      <trkpt lat="45.68398" lon="-1.08292">
        <ele>50</ele>
        <time>2015-11-26T14:34:23Z</time>
      </trkpt>
      <trkpt lat="45.68405" lon="-1.083">
        <ele>50.75</ele>
        <time>2015-11-26T14:34:30Z</time>
      </trkpt>
      <trkpt lat="45.68413" lon="-1.0831">
        <ele>51.94</ele>
        <time>2015-11-26T14:34:38Z</time>
      </trkpt>
      <trkpt lat="45.68418" lon="-1.08319">
        <ele>53</ele>
        <time>2015-11-26T14:34:45Z</time>
      </trkpt>
      <trkpt lat="45.68425" lon="-1.08328">
        <ele>51.02</ele>
        <time>2015-11-26T14:34:53Z</time>
      </trkpt>
      <trkpt lat="45.68431" lon="-1.08336">
        <ele>51</ele>
        <time>2015-11-26T14:35:00Z</time>
      </trkpt>
      <trkpt lat="45.68439" lon="-1.08345">
        <ele>51.78</ele>
        <time>2015-11-26T14:35:08Z</time>
      </trkpt>
      <trkpt lat="45.68446" lon="-1.08353">
        <ele>52.75</ele>
        <time>2015-11-26T14:35:15Z</time>
      </trkpt>
      <trkpt lat="45.68454" lon="-1.08362">
        <ele>51</ele>
        <time>2015-11-26T14:35:23Z</time>
      </trkpt>
      <trkpt lat="45.68462" lon="-1.08371">
        <ele>49.25</ele>
        <time>2015-11-26T14:35:31Z</time>
      </trkpt>
      <trkpt lat="45.68468" lon="-1.08379">
        <ele>49</ele>
        <time>2015-11-26T14:35:38Z</time>
      </trkpt>
      <trkpt lat="45.68476" lon="-1.08389">
        <ele>50</ele>
        <time>2015-11-26T14:35:45Z</time>
      </trkpt>
      <trkpt lat="45.68484" lon="-1.08396">
        <ele>50.75</ele>
        <time>2015-11-26T14:35:53Z</time>
      </trkpt>
      <trkpt lat="45.68492" lon="-1.08402">
        <ele>51</ele>
        <time>2015-11-26T14:36:00Z</time>
      </trkpt>
      <trkpt lat="45.68499" lon="-1.0841">
        <ele>51</ele>
        <time>2015-11-26T14:36:08Z</time>
      </trkpt>
      <trkpt lat="45.68506" lon="-1.08416">
        <ele>49.75</ele>
        <time>2015-11-26T14:36:15Z</time>
      </trkpt>
      <trkpt lat="45.68514" lon="-1.08424">
        <ele>48.06</ele>
        <time>2015-11-26T14:36:23Z</time>
      </trkpt>
      <trkpt lat="45.68521" lon="-1.0843">
        <ele>47.75</ele>
        <time>2015-11-26T14:36:30Z</time>
      </trkpt>
      <trkpt lat="45.6853" lon="-1.08441">
        <ele>50.94</ele>
        <time>2015-11-26T14:36:38Z</time>
      </trkpt>
      <trkpt lat="45.68537" lon="-1.08448">
        <ele>50.01</ele>
        <time>2015-11-26T14:36:46Z</time>
      </trkpt>
      <trkpt lat="45.68547" lon="-1.08456">
        <ele>51.94</ele>
        <time>2015-11-26T14:36:54Z</time>
      </trkpt>
      <trkpt lat="45.68555" lon="-1.08464">
        <ele>51.2</ele>
        <time>2015-11-26T14:37:01Z</time>
      </trkpt>
      <trkpt lat="45.68563" lon="-1.08471">
        <ele>51.06</ele>
        <time>2015-11-26T14:37:09Z</time>
      </trkpt>
      <trkpt lat="45.6857" lon="-1.0848">
        <ele>52</ele>
        <time>2015-11-26T14:37:17Z</time>
      </trkpt>
      <trkpt lat="45.68576" lon="-1.08488">
        <ele>51</ele>
        <time>2015-11-26T14:37:25Z</time>
      </trkpt>
      <trkpt lat="45.68584" lon="-1.08495">
        <ele>50.25</ele>
        <time>2015-11-26T14:37:32Z</time>
      </trkpt>
      <trkpt lat="45.68593" lon="-1.08505">
        <ele>50.23</ele>
        <time>2015-11-26T14:37:40Z</time>
      </trkpt>
      <trkpt lat="45.686" lon="-1.08514">
        <ele>48</ele>
        <time>2015-11-26T14:37:48Z</time>
      </trkpt>
      <trkpt lat="45.68606" lon="-1.08522">
        <ele>49</ele>
        <time>2015-11-26T14:37:55Z</time>
      </trkpt>
      <trkpt lat="45.68613" lon="-1.08532">
        <ele>50.03</ele>
        <time>2015-11-26T14:38:02Z</time>
      </trkpt>
      <trkpt lat="45.68619" lon="-1.0854">
        <ele>47.31</ele>
        <time>2015-11-26T14:38:10Z</time>
      </trkpt>
      <trkpt lat="45.68625" lon="-1.08548">
        <ele>45.25</ele>
        <time>2015-11-26T14:38:18Z</time>
      </trkpt>
      <trkpt lat="45.68635" lon="-1.08553">
        <ele>44.75</ele>
        <time>2015-11-26T14:38:26Z</time>
      </trkpt>
      <trkpt lat="45.68643" lon="-1.08556">
        <ele>44.11</ele>
        <time>2015-11-26T14:38:33Z</time>
      </trkpt>
      <trkpt lat="45.68652" lon="-1.08559">
        <ele>45.23</ele>
        <time>2015-11-26T14:38:40Z</time>
      </trkpt>
      <trkpt lat="45.68662" lon="-1.08562">
        <ele>45.25</ele>
        <time>2015-11-26T14:38:48Z</time>
      </trkpt>
      <trkpt lat="45.68671" lon="-1.08563">
        <ele>45.8</ele>
        <time>2015-11-26T14:38:55Z</time>
      </trkpt>
      <trkpt lat="45.68679" lon="-1.08566">
        <ele>45.25</ele>
        <time>2015-11-26T14:39:02Z</time>
      </trkpt>
      <trkpt lat="45.68688" lon="-1.08567">
        <ele>42.46</ele>
        <time>2015-11-26T14:39:10Z</time>
      </trkpt>
      <trkpt lat="45.68701" lon="-1.08572">
        <ele>46.89</ele>
        <time>2015-11-26T14:39:18Z</time>
      </trkpt>
      <trkpt lat="45.68754" lon="-1.08589">
        <ele>53.26</ele>
        <time>2015-11-26T14:39:56Z</time>
      </trkpt>
      <trkpt lat="45.6876" lon="-1.08591">
        <ele>45</ele>
        <time>2015-11-26T14:40:04Z</time>
      </trkpt>
      <trkpt lat="45.68771" lon="-1.08595">
        <ele>46.99</ele>
        <time>2015-11-26T14:40:12Z</time>
      </trkpt>
      <trkpt lat="45.68782" lon="-1.08599">
        <ele>47.94</ele>
        <time>2015-11-26T14:40:20Z</time>
      </trkpt>
      <trkpt lat="45.68791" lon="-1.08604">
        <ele>48.81</ele>
        <time>2015-11-26T14:40:28Z</time>
      </trkpt>
      <trkpt lat="45.68799" lon="-1.08607">
        <ele>48</ele>
        <time>2015-11-26T14:40:35Z</time>
      </trkpt>
      <trkpt lat="45.68809" lon="-1.08611">
        <ele>49.98</ele>
        <time>2015-11-26T14:40:42Z</time>
      </trkpt>
      <trkpt lat="45.68818" lon="-1.08613">
        <ele>49</ele>
        <time>2015-11-26T14:40:49Z</time>
      </trkpt>
      <trkpt lat="45.68828" lon="-1.08618">
        <ele>50</ele>
        <time>2015-11-26T14:40:57Z</time>
      </trkpt>
      <trkpt lat="45.68837" lon="-1.08622">
        <ele>49.05</ele>
        <time>2015-11-26T14:41:05Z</time>
      </trkpt>
      <trkpt lat="45.68846" lon="-1.08625">
        <ele>49</ele>
        <time>2015-11-26T14:41:12Z</time>
      </trkpt>
      <trkpt lat="45.68856" lon="-1.08629">
        <ele>49.75</ele>
        <time>2015-11-26T14:41:20Z</time>
      </trkpt>
      <trkpt lat="45.68864" lon="-1.08632">
        <ele>50</ele>
        <time>2015-11-26T14:41:27Z</time>
      </trkpt>
      <trkpt lat="45.68871" lon="-1.08635">
        <ele>49</ele>
        <time>2015-11-26T14:41:34Z</time>
      </trkpt>
      <trkpt lat="45.68881" lon="-1.08639">
        <ele>48.81</ele>
        <time>2015-11-26T14:41:42Z</time>
      </trkpt>
      <trkpt lat="45.6889" lon="-1.08642">
        <ele>48.06</ele>
        <time>2015-11-26T14:41:50Z</time>
      </trkpt>
      <trkpt lat="45.68898" lon="-1.08646">
        <ele>48.75</ele>
        <time>2015-11-26T14:41:57Z</time>
      </trkpt>
      <trkpt lat="45.68907" lon="-1.08649">
        <ele>48.99</ele>
        <time>2015-11-26T14:42:05Z</time>
      </trkpt>
      <trkpt lat="45.68916" lon="-1.08654">
        <ele>48</ele>
        <time>2015-11-26T14:42:13Z</time>
      </trkpt>
      <trkpt lat="45.68925" lon="-1.08657">
        <ele>48.8</ele>
        <time>2015-11-26T14:42:21Z</time>
      </trkpt>
      <trkpt lat="45.68932" lon="-1.08661">
        <ele>48</ele>
        <time>2015-11-26T14:42:28Z</time>
      </trkpt>
      <trkpt lat="45.6894" lon="-1.08665">
        <ele>47.99</ele>
        <time>2015-11-26T14:42:35Z</time>
      </trkpt>
      <trkpt lat="45.6895" lon="-1.08668">
        <ele>47.05</ele>
        <time>2015-11-26T14:42:43Z</time>
      </trkpt>
      <trkpt lat="45.68959" lon="-1.08673">
        <ele>47</ele>
        <time>2015-11-26T14:42:50Z</time>
      </trkpt>
      <trkpt lat="45.6897" lon="-1.08676">
        <ele>48.93</ele>
        <time>2015-11-26T14:42:57Z</time>
      </trkpt>
      <trkpt lat="45.6898" lon="-1.08679">
        <ele>49</ele>
        <time>2015-11-26T14:43:05Z</time>
      </trkpt>
      <trkpt lat="45.68988" lon="-1.08682">
        <ele>49.75</ele>
        <time>2015-11-26T14:43:12Z</time>
      </trkpt>
      <trkpt lat="45.68997" lon="-1.08686">
        <ele>51</ele>
        <time>2015-11-26T14:43:19Z</time>
      </trkpt>
      <trkpt lat="45.69007" lon="-1.08689">
        <ele>50.02</ele>
        <time>2015-11-26T14:43:27Z</time>
      </trkpt>
      <trkpt lat="45.69017" lon="-1.08694">
        <ele>50</ele>
        <time>2015-11-26T14:43:35Z</time>
      </trkpt>
      <trkpt lat="45.69026" lon="-1.08697">
        <ele>49.02</ele>
        <time>2015-11-26T14:43:43Z</time>
      </trkpt>
      <trkpt lat="45.69034" lon="-1.087">
        <ele>49</ele>
        <time>2015-11-26T14:43:50Z</time>
      </trkpt>
      <trkpt lat="45.69043" lon="-1.08703">
        <ele>49</ele>
        <time>2015-11-26T14:43:57Z</time>
      </trkpt>
      <trkpt lat="45.69051" lon="-1.08705">
        <ele>49</ele>
        <time>2015-11-26T14:44:04Z</time>
      </trkpt>
      <trkpt lat="45.6906" lon="-1.08708">
        <ele>48.25</ele>
        <time>2015-11-26T14:44:12Z</time>
      </trkpt>
      <trkpt lat="45.69066" lon="-1.08714">
        <ele>48.95</ele>
        <time>2015-11-26T14:44:19Z</time>
      </trkpt>
      <trkpt lat="45.69074" lon="-1.08718">
        <ele>49</ele>
        <time>2015-11-26T14:44:26Z</time>
      </trkpt>
      <trkpt lat="45.69083" lon="-1.08721">
        <ele>49</ele>
        <time>2015-11-26T14:44:34Z</time>
      </trkpt>
      <trkpt lat="45.69092" lon="-1.08725">
        <ele>48.02</ele>
        <time>2015-11-26T14:44:42Z</time>
      </trkpt>
      <trkpt lat="45.69102" lon="-1.08731">
        <ele>48.02</ele>
        <time>2015-11-26T14:44:50Z</time>
      </trkpt>
      <trkpt lat="45.69113" lon="-1.08738">
        <ele>49.93</ele>
        <time>2015-11-26T14:44:57Z</time>
      </trkpt>
      <trkpt lat="45.69121" lon="-1.08746">
        <ele>49.02</ele>
        <time>2015-11-26T14:45:05Z</time>
      </trkpt>
      <trkpt lat="45.69132" lon="-1.08754">
        <ele>51.67</ele>
        <time>2015-11-26T14:45:13Z</time>
      </trkpt>
      <trkpt lat="45.6914" lon="-1.0876">
        <ele>53.98</ele>
        <time>2015-11-26T14:45:20Z</time>
      </trkpt>
      <trkpt lat="45.69147" lon="-1.08767">
        <ele>53.19</ele>
        <time>2015-11-26T14:45:27Z</time>
      </trkpt>
      <trkpt lat="45.69156" lon="-1.08776">
        <ele>54</ele>
        <time>2015-11-26T14:45:35Z</time>
      </trkpt>
      <trkpt lat="45.69166" lon="-1.08783">
        <ele>55.7</ele>
        <time>2015-11-26T14:45:43Z</time>
      </trkpt>
      <trkpt lat="45.69175" lon="-1.0879">
        <ele>57.98</ele>
        <time>2015-11-26T14:45:50Z</time>
      </trkpt>
      <trkpt lat="45.69184" lon="-1.08796">
        <ele>58.81</ele>
        <time>2015-11-26T14:45:57Z</time>
      </trkpt>
      <trkpt lat="45.69191" lon="-1.08804">
        <ele>59</ele>
        <time>2015-11-26T14:46:05Z</time>
      </trkpt>
      <trkpt lat="45.69194" lon="-1.08808">
        <ele>50.28</ele>
        <time>2015-11-26T14:46:13Z</time>
      </trkpt>
      <trkpt lat="45.69204" lon="-1.08816">
        <ele>49.31</ele>
        <time>2015-11-26T14:46:21Z</time>
      </trkpt>
      <trkpt lat="45.69211" lon="-1.08823">
        <ele>49</ele>
        <time>2015-11-26T14:46:28Z</time>
      </trkpt>
      <trkpt lat="45.6922" lon="-1.08831">
        <ele>49</ele>
        <time>2015-11-26T14:46:36Z</time>
      </trkpt>
      <trkpt lat="45.69228" lon="-1.08839">
        <ele>48.75</ele>
        <time>2015-11-26T14:46:44Z</time>
      </trkpt>
      <trkpt lat="45.69235" lon="-1.08846">
        <ele>47.76</ele>
        <time>2015-11-26T14:46:52Z</time>
      </trkpt>
      <trkpt lat="45.69244" lon="-1.08852">
        <ele>48</ele>
        <time>2015-11-26T14:46:59Z</time>
      </trkpt>
      <trkpt lat="45.69251" lon="-1.0886">
        <ele>47</ele>
        <time>2015-11-26T14:47:07Z</time>
      </trkpt>
      <trkpt lat="45.69259" lon="-1.08868">
        <ele>49.69</ele>
        <time>2015-11-26T14:47:14Z</time>
      </trkpt>
      <trkpt lat="45.69267" lon="-1.08875">
        <ele>49.99</ele>
        <time>2015-11-26T14:47:21Z</time>
      </trkpt>
      <trkpt lat="45.69275" lon="-1.08882">
        <ele>51.05</ele>
        <time>2015-11-26T14:47:28Z</time>
      </trkpt>
      <trkpt lat="45.69283" lon="-1.0889">
        <ele>51.77</ele>
        <time>2015-11-26T14:47:35Z</time>
      </trkpt>
      <trkpt lat="45.69291" lon="-1.089">
        <ele>52</ele>
        <time>2015-11-26T14:47:43Z</time>
      </trkpt>
      <trkpt lat="45.69298" lon="-1.08909">
        <ele>52.25</ele>
        <time>2015-11-26T14:47:50Z</time>
      </trkpt>
      <trkpt lat="45.69304" lon="-1.08919">
        <ele>51</ele>
        <time>2015-11-26T14:47:58Z</time>
      </trkpt>
      <trkpt lat="45.69312" lon="-1.08929">
        <ele>50.95</ele>
        <time>2015-11-26T14:48:06Z</time>
      </trkpt>
      <trkpt lat="45.69318" lon="-1.08938">
        <ele>50.25</ele>
        <time>2015-11-26T14:48:14Z</time>
      </trkpt>
      <trkpt lat="45.69324" lon="-1.08944">
        <ele>49.01</ele>
        <time>2015-11-26T14:48:21Z</time>
      </trkpt>
      <trkpt lat="45.6933" lon="-1.08941">
        <ele>48</ele>
        <time>2015-11-26T14:48:29Z</time>
      </trkpt>
      <trkpt lat="45.69336" lon="-1.0894">
        <ele>46</ele>
        <time>2015-11-26T14:48:36Z</time>
      </trkpt>
      <trkpt lat="45.69344" lon="-1.08933">
        <ele>44.02</ele>
        <time>2015-11-26T14:48:44Z</time>
      </trkpt>
      <trkpt lat="45.69351" lon="-1.08929">
        <ele>44</ele>
        <time>2015-11-26T14:48:51Z</time>
      </trkpt>
      <trkpt lat="45.69359" lon="-1.08924">
        <ele>43.06</ele>
        <time>2015-11-26T14:48:59Z</time>
      </trkpt>
      <trkpt lat="45.69368" lon="-1.08916">
        <ele>44.94</ele>
        <time>2015-11-26T14:49:07Z</time>
      </trkpt>
      <trkpt lat="45.69376" lon="-1.08911">
        <ele>44.99</ele>
        <time>2015-11-26T14:49:14Z</time>
      </trkpt>
      <trkpt lat="45.69385" lon="-1.08904">
        <ele>45</ele>
        <time>2015-11-26T14:49:22Z</time>
      </trkpt>
      <trkpt lat="45.69393" lon="-1.08899">
        <ele>46.01</ele>
        <time>2015-11-26T14:49:30Z</time>
      </trkpt>
      <trkpt lat="45.69402" lon="-1.08894">
        <ele>45.06</ele>
        <time>2015-11-26T14:49:38Z</time>
      </trkpt>
      <trkpt lat="45.69409" lon="-1.08889">
        <ele>45</ele>
        <time>2015-11-26T14:49:45Z</time>
      </trkpt>
      <trkpt lat="45.69416" lon="-1.08881">
        <ele>45.75</ele>
        <time>2015-11-26T14:49:52Z</time>
      </trkpt>
      <trkpt lat="45.69419" lon="-1.08867">
        <ele>44.25</ele>
        <time>2015-11-26T14:50:00Z</time>
      </trkpt>
      <trkpt lat="45.69417" lon="-1.08855">
        <ele>48</ele>
        <time>2015-11-26T14:50:07Z</time>
      </trkpt>
      <trkpt lat="45.69415" lon="-1.08849">
        <ele>46.81</ele>
        <time>2015-11-26T14:50:14Z</time>
      </trkpt>
      <trkpt lat="45.69411" lon="-1.08841">
        <ele>48.75</ele>
        <time>2015-11-26T14:50:21Z</time>
      </trkpt>
      <trkpt lat="45.69405" lon="-1.08829">
        <ele>51.94</ele>
        <time>2015-11-26T14:50:29Z</time>
      </trkpt>
      <trkpt lat="45.69401" lon="-1.08819">
        <ele>51.99</ele>
        <time>2015-11-26T14:50:36Z</time>
      </trkpt>
      <trkpt lat="45.69397" lon="-1.08808">
        <ele>53.05</ele>
        <time>2015-11-26T14:50:44Z</time>
      </trkpt>
      <trkpt lat="45.69391" lon="-1.08794">
        <ele>54.75</ele>
        <time>2015-11-26T14:50:52Z</time>
      </trkpt>
      <trkpt lat="45.69386" lon="-1.08783">
        <ele>56.94</ele>
        <time>2015-11-26T14:51:00Z</time>
      </trkpt>
      <trkpt lat="45.69381" lon="-1.08772">
        <ele>58</ele>
        <time>2015-11-26T14:51:07Z</time>
      </trkpt>
      <trkpt lat="45.69376" lon="-1.08763">
        <ele>57.25</ele>
        <time>2015-11-26T14:51:14Z</time>
      </trkpt>
      <trkpt lat="45.69372" lon="-1.08755">
        <ele>58.94</ele>
        <time>2015-11-26T14:51:21Z</time>
      </trkpt>
      <trkpt lat="45.69367" lon="-1.08744">
        <ele>58.8</ele>
        <time>2015-11-26T14:51:29Z</time>
      </trkpt>
      <trkpt lat="45.69361" lon="-1.08731">
        <ele>58.77</ele>
        <time>2015-11-26T14:51:37Z</time>
      </trkpt>
      <trkpt lat="45.69356" lon="-1.08719">
        <ele>60.75</ele>
        <time>2015-11-26T14:51:44Z</time>
      </trkpt>
      <trkpt lat="45.69353" lon="-1.08711">
        <ele>61.36</ele>
        <time>2015-11-26T14:51:52Z</time>
      </trkpt>
      <trkpt lat="45.6935" lon="-1.08702">
        <ele>60</ele>
        <time>2015-11-26T14:52:00Z</time>
      </trkpt>
      <trkpt lat="45.69346" lon="-1.08693">
        <ele>59</ele>
        <time>2015-11-26T14:52:07Z</time>
      </trkpt>
      <trkpt lat="45.69341" lon="-1.08678">
        <ele>61</ele>
        <time>2015-11-26T14:52:15Z</time>
      </trkpt>
      <trkpt lat="45.69334" lon="-1.08666">
        <ele>63.68</ele>
        <time>2015-11-26T14:52:23Z</time>
      </trkpt>
      <trkpt lat="45.69331" lon="-1.08657">
        <ele>64.98</ele>
        <time>2015-11-26T14:52:30Z</time>
      </trkpt>
      <trkpt lat="45.69324" lon="-1.08644">
        <ele>66.98</ele>
        <time>2015-11-26T14:52:38Z</time>
      </trkpt>
      <trkpt lat="45.6932" lon="-1.08635">
        <ele>68.24</ele>
        <time>2015-11-26T14:52:46Z</time>
      </trkpt>
      <trkpt lat="45.69314" lon="-1.08621">
        <ele>69</ele>
        <time>2015-11-26T14:52:54Z</time>
      </trkpt>
      <trkpt lat="45.69309" lon="-1.08606">
        <ele>69</ele>
        <time>2015-11-26T14:53:02Z</time>
      </trkpt>
      <trkpt lat="45.69311" lon="-1.08597">
        <ele>63.27</ele>
        <time>2015-11-26T14:53:10Z</time>
      </trkpt>
      <trkpt lat="45.69315" lon="-1.08588">
        <ele>63.25</ele>
        <time>2015-11-26T14:53:17Z</time>
      </trkpt>
      <trkpt lat="45.69322" lon="-1.08577">
        <ele>62.99</ele>
        <time>2015-11-26T14:53:25Z</time>
      </trkpt>
      <trkpt lat="45.69329" lon="-1.08569">
        <ele>63</ele>
        <time>2015-11-26T14:53:33Z</time>
      </trkpt>
      <trkpt lat="45.69336" lon="-1.08562">
        <ele>63.01</ele>
        <time>2015-11-26T14:53:40Z</time>
      </trkpt>
      <trkpt lat="45.69343" lon="-1.08554">
        <ele>62</ele>
        <time>2015-11-26T14:53:47Z</time>
      </trkpt>
      <trkpt lat="45.69349" lon="-1.08545">
        <ele>62.95</ele>
        <time>2015-11-26T14:53:54Z</time>
      </trkpt>
      <trkpt lat="45.69357" lon="-1.08536">
        <ele>62.25</ele>
        <time>2015-11-26T14:54:02Z</time>
      </trkpt>
      <trkpt lat="45.69365" lon="-1.08527">
        <ele>63.75</ele>
        <time>2015-11-26T14:54:09Z</time>
      </trkpt>
      <trkpt lat="45.69372" lon="-1.08519">
        <ele>63</ele>
        <time>2015-11-26T14:54:17Z</time>
      </trkpt>
      <trkpt lat="45.6938" lon="-1.08509">
        <ele>64</ele>
        <time>2015-11-26T14:54:24Z</time>
      </trkpt>
      <trkpt lat="45.69386" lon="-1.08498">
        <ele>63.25</ele>
        <time>2015-11-26T14:54:31Z</time>
      </trkpt>
      <trkpt lat="45.69392" lon="-1.08485">
        <ele>64.02</ele>
        <time>2015-11-26T14:54:39Z</time>
      </trkpt>
      <trkpt lat="45.69395" lon="-1.08473">
        <ele>64.01</ele>
        <time>2015-11-26T14:54:46Z</time>
      </trkpt>
      <trkpt lat="45.69396" lon="-1.08459">
        <ele>62</ele>
        <time>2015-11-26T14:54:54Z</time>
      </trkpt>
      <trkpt lat="45.69394" lon="-1.08445">
        <ele>62.81</ele>
        <time>2015-11-26T14:55:01Z</time>
      </trkpt>
      <trkpt lat="45.69391" lon="-1.08433">
        <ele>63.25</ele>
        <time>2015-11-26T14:55:09Z</time>
      </trkpt>
      <trkpt lat="45.69387" lon="-1.08422">
        <ele>65.72</ele>
        <time>2015-11-26T14:55:16Z</time>
      </trkpt>
      <trkpt lat="45.69381" lon="-1.08409">
        <ele>67.75</ele>
        <time>2015-11-26T14:55:24Z</time>
      </trkpt>
      <trkpt lat="45.69379" lon="-1.08399">
        <ele>68.48</ele>
        <time>2015-11-26T14:55:31Z</time>
      </trkpt>
      <trkpt lat="45.69373" lon="-1.08386">
        <ele>69.92</ele>
        <time>2015-11-26T14:55:39Z</time>
      </trkpt>
      <trkpt lat="45.6937" lon="-1.08377">
        <ele>68.19</ele>
        <time>2015-11-26T14:55:46Z</time>
      </trkpt>
      <trkpt lat="45.69363" lon="-1.08366">
        <ele>71</ele>
        <time>2015-11-26T14:55:53Z</time>
      </trkpt>
      <trkpt lat="45.69358" lon="-1.08355">
        <ele>70</ele>
        <time>2015-11-26T14:56:01Z</time>
      </trkpt>
      <trkpt lat="45.69354" lon="-1.08346">
        <ele>69.19</ele>
        <time>2015-11-26T14:56:09Z</time>
      </trkpt>
      <trkpt lat="45.69349" lon="-1.08333">
        <ele>70.19</ele>
        <time>2015-11-26T14:56:16Z</time>
      </trkpt>
      <trkpt lat="45.69344" lon="-1.08323">
        <ele>69</ele>
        <time>2015-11-26T14:56:23Z</time>
      </trkpt>
      <trkpt lat="45.69338" lon="-1.08312">
        <ele>69</ele>
        <time>2015-11-26T14:56:30Z</time>
      </trkpt>
      <trkpt lat="45.69331" lon="-1.08301">
        <ele>70.01</ele>
        <time>2015-11-26T14:56:38Z</time>
      </trkpt>
      <trkpt lat="45.69325" lon="-1.0829">
        <ele>71</ele>
        <time>2015-11-26T14:56:45Z</time>
      </trkpt>
      <trkpt lat="45.69319" lon="-1.0828">
        <ele>71.99</ele>
        <time>2015-11-26T14:56:53Z</time>
      </trkpt>
      <trkpt lat="45.69313" lon="-1.08268">
        <ele>72</ele>
        <time>2015-11-26T14:57:01Z</time>
      </trkpt>
      <trkpt lat="45.69309" lon="-1.08256">
        <ele>72</ele>
        <time>2015-11-26T14:57:08Z</time>
      </trkpt>
      <trkpt lat="45.69302" lon="-1.08241">
        <ele>74.93</ele>
        <time>2015-11-26T14:57:15Z</time>
      </trkpt>
      <trkpt lat="45.69295" lon="-1.08227">
        <ele>75.92</ele>
        <time>2015-11-26T14:57:23Z</time>
      </trkpt>
      <trkpt lat="45.69292" lon="-1.08219">
        <ele>73.3</ele>
        <time>2015-11-26T14:57:30Z</time>
      </trkpt>
      <trkpt lat="45.69289" lon="-1.08208">
        <ele>71.54</ele>
        <time>2015-11-26T14:57:38Z</time>
      </trkpt>
      <trkpt lat="45.69285" lon="-1.08197">
        <ele>70.25</ele>
        <time>2015-11-26T14:57:45Z</time>
      </trkpt>
      <trkpt lat="45.69282" lon="-1.08186">
        <ele>69.93</ele>
        <time>2015-11-26T14:57:53Z</time>
      </trkpt>
      <trkpt lat="45.69279" lon="-1.08178">
        <ele>68</ele>
        <time>2015-11-26T14:58:00Z</time>
      </trkpt>
      <trkpt lat="45.69275" lon="-1.08167">
        <ele>66.08</ele>
        <time>2015-11-26T14:58:08Z</time>
      </trkpt>
      <trkpt lat="45.69271" lon="-1.08158">
        <ele>64.76</ele>
        <time>2015-11-26T14:58:15Z</time>
      </trkpt>
      <trkpt lat="45.69266" lon="-1.08146">
        <ele>66.87</ele>
        <time>2015-11-26T14:58:22Z</time>
      </trkpt>
      <trkpt lat="45.69261" lon="-1.08133">
        <ele>67.76</ele>
        <time>2015-11-26T14:58:30Z</time>
      </trkpt>
      <trkpt lat="45.69259" lon="-1.08119">
        <ele>67.93</ele>
        <time>2015-11-26T14:58:37Z</time>
      </trkpt>
      <trkpt lat="45.69259" lon="-1.0811">
        <ele>63.82</ele>
        <time>2015-11-26T14:58:44Z</time>
      </trkpt>
      <trkpt lat="45.69259" lon="-1.08098">
        <ele>61.01</ele>
        <time>2015-11-26T14:58:52Z</time>
      </trkpt>
      <trkpt lat="45.69258" lon="-1.08082">
        <ele>62.14</ele>
        <time>2015-11-26T14:59:00Z</time>
      </trkpt>
      <trkpt lat="45.69258" lon="-1.08066">
        <ele>64.73</ele>
        <time>2015-11-26T14:59:08Z</time>
      </trkpt>
      <trkpt lat="45.69259" lon="-1.08054">
        <ele>63.24</ele>
        <time>2015-11-26T14:59:16Z</time>
      </trkpt>
      <trkpt lat="45.6926" lon="-1.0804">
        <ele>63.01</ele>
        <time>2015-11-26T14:59:24Z</time>
      </trkpt>
      <trkpt lat="45.69262" lon="-1.0803">
        <ele>61.27</ele>
        <time>2015-11-26T14:59:31Z</time>
      </trkpt>
      <trkpt lat="45.69264" lon="-1.08018">
        <ele>60.07</ele>
        <time>2015-11-26T14:59:38Z</time>
      </trkpt>
      <trkpt lat="45.69265" lon="-1.08008">
        <ele>60.2</ele>
        <time>2015-11-26T14:59:46Z</time>
      </trkpt>
      <trkpt lat="45.69265" lon="-1.08001">
        <ele>60.77</ele>
        <time>2015-11-26T15:00:13Z</time>
      </trkpt>
      <trkpt lat="45.69268" lon="-1.07995">
        <ele>65.17</ele>
        <time>2015-11-26T15:02:40Z</time>
      </trkpt>
      <trkpt lat="45.69269" lon="-1.07988">
        <ele>67</ele>
        <time>2015-11-26T15:05:11Z</time>
      </trkpt>
      <trkpt lat="45.69276" lon="-1.07977">
        <ele>66</ele>
        <time>2015-11-26T15:05:19Z</time>
      </trkpt>
      <trkpt lat="45.6928" lon="-1.07967">
        <ele>65.25</ele>
        <time>2015-11-26T15:05:26Z</time>
      </trkpt>
      <trkpt lat="45.69286" lon="-1.07956">
        <ele>67.17</ele>
        <time>2015-11-26T15:05:33Z</time>
      </trkpt>
      <trkpt lat="45.6929" lon="-1.07944">
        <ele>68</ele>
        <time>2015-11-26T15:05:41Z</time>
      </trkpt>
      <trkpt lat="45.69298" lon="-1.07928">
        <ele>70.97</ele>
        <time>2015-11-26T15:05:49Z</time>
      </trkpt>
      <trkpt lat="45.69305" lon="-1.07918">
        <ele>66.25</ele>
        <time>2015-11-26T15:05:57Z</time>
      </trkpt>
      <trkpt lat="45.69309" lon="-1.07906">
        <ele>67</ele>
        <time>2015-11-26T15:06:04Z</time>
      </trkpt>
      <trkpt lat="45.69313" lon="-1.07893">
        <ele>67</ele>
        <time>2015-11-26T15:06:12Z</time>
      </trkpt>
      <trkpt lat="45.69317" lon="-1.07878">
        <ele>68.93</ele>
        <time>2015-11-26T15:06:20Z</time>
      </trkpt>
      <trkpt lat="45.69318" lon="-1.07865">
        <ele>69.06</ele>
        <time>2015-11-26T15:06:27Z</time>
      </trkpt>
      <trkpt lat="45.69322" lon="-1.07858">
        <ele>64.26</ele>
        <time>2015-11-26T15:06:34Z</time>
      </trkpt>
      <trkpt lat="45.69325" lon="-1.07845">
        <ele>64.07</ele>
        <time>2015-11-26T15:06:42Z</time>
      </trkpt>
      <trkpt lat="45.69326" lon="-1.07836">
        <ele>62</ele>
        <time>2015-11-26T15:06:49Z</time>
      </trkpt>
      <trkpt lat="45.69329" lon="-1.07825">
        <ele>61.25</ele>
        <time>2015-11-26T15:06:56Z</time>
      </trkpt>
      <trkpt lat="45.69331" lon="-1.07815">
        <ele>61.19</ele>
        <time>2015-11-26T15:07:03Z</time>
      </trkpt>
      <trkpt lat="45.69333" lon="-1.07799">
        <ele>62.88</ele>
        <time>2015-11-26T15:07:11Z</time>
      </trkpt>
      <trkpt lat="45.69335" lon="-1.0779">
        <ele>61.02</ele>
        <time>2015-11-26T15:07:18Z</time>
      </trkpt>
      <trkpt lat="45.69336" lon="-1.07775">
        <ele>62</ele>
        <time>2015-11-26T15:07:26Z</time>
      </trkpt>
      <trkpt lat="45.69336" lon="-1.07758">
        <ele>62.75</ele>
        <time>2015-11-26T15:07:34Z</time>
      </trkpt>
      <trkpt lat="45.69337" lon="-1.07744">
        <ele>63</ele>
        <time>2015-11-26T15:07:42Z</time>
      </trkpt>
      <trkpt lat="45.69338" lon="-1.07732">
        <ele>63.94</ele>
        <time>2015-11-26T15:07:49Z</time>
      </trkpt>
      <trkpt lat="45.69338" lon="-1.07718">
        <ele>64</ele>
        <time>2015-11-26T15:07:57Z</time>
      </trkpt>
      <trkpt lat="45.69338" lon="-1.07704">
        <ele>64</ele>
        <time>2015-11-26T15:08:04Z</time>
      </trkpt>
      <trkpt lat="45.69338" lon="-1.07691">
        <ele>64</ele>
        <time>2015-11-26T15:08:11Z</time>
      </trkpt>
      <trkpt lat="45.69338" lon="-1.07669">
        <ele>69.7</ele>
        <time>2015-11-26T15:08:19Z</time>
      </trkpt>
      <trkpt lat="45.69344" lon="-1.07663">
        <ele>67.97</ele>
        <time>2015-11-26T15:08:26Z</time>
      </trkpt>
      <trkpt lat="45.69348" lon="-1.07654">
        <ele>69.68</ele>
        <time>2015-11-26T15:08:33Z</time>
      </trkpt>
      <trkpt lat="45.69356" lon="-1.07647">
        <ele>68.06</ele>
        <time>2015-11-26T15:08:41Z</time>
      </trkpt>
      <trkpt lat="45.69365" lon="-1.07639">
        <ele>68</ele>
        <time>2015-11-26T15:08:49Z</time>
      </trkpt>
      <trkpt lat="45.69372" lon="-1.07632">
        <ele>66.2</ele>
        <time>2015-11-26T15:08:57Z</time>
      </trkpt>
      <trkpt lat="45.69377" lon="-1.07624">
        <ele>66.99</ele>
        <time>2015-11-26T15:09:05Z</time>
      </trkpt>
      <trkpt lat="45.69383" lon="-1.07612">
        <ele>68.06</ele>
        <time>2015-11-26T15:09:12Z</time>
      </trkpt>
      <trkpt lat="45.69391" lon="-1.07605">
        <ele>66.07</ele>
        <time>2015-11-26T15:09:20Z</time>
      </trkpt>
      <trkpt lat="45.69398" lon="-1.07602">
        <ele>65.01</ele>
        <time>2015-11-26T15:09:27Z</time>
      </trkpt>
      <trkpt lat="45.69408" lon="-1.076">
        <ele>65.25</ele>
        <time>2015-11-26T15:09:35Z</time>
      </trkpt>
      <trkpt lat="45.69414" lon="-1.07588">
        <ele>62.88</ele>
        <time>2015-11-26T15:09:42Z</time>
      </trkpt>
      <trkpt lat="45.6942" lon="-1.07579">
        <ele>62.05</ele>
        <time>2015-11-26T15:09:49Z</time>
      </trkpt>
      <trkpt lat="45.69422" lon="-1.07572">
        <ele>63.75</ele>
        <time>2015-11-26T15:09:58Z</time>
      </trkpt>
      <trkpt lat="45.69426" lon="-1.07555">
        <ele>65.11</ele>
        <time>2015-11-26T15:10:06Z</time>
      </trkpt>
      <trkpt lat="45.69427" lon="-1.0754">
        <ele>61</ele>
        <time>2015-11-26T15:10:14Z</time>
      </trkpt>
      <trkpt lat="45.69426" lon="-1.07529">
        <ele>59.21</ele>
        <time>2015-11-26T15:10:22Z</time>
      </trkpt>
      <trkpt lat="45.69421" lon="-1.07518">
        <ele>59.76</ele>
        <time>2015-11-26T15:10:30Z</time>
      </trkpt>
      <trkpt lat="45.69416" lon="-1.07506">
        <ele>60</ele>
        <time>2015-11-26T15:10:37Z</time>
      </trkpt>
      <trkpt lat="45.69409" lon="-1.07496">
        <ele>58.26</ele>
        <time>2015-11-26T15:10:44Z</time>
      </trkpt>
      <trkpt lat="45.69403" lon="-1.07483">
        <ele>60.98</ele>
        <time>2015-11-26T15:10:52Z</time>
      </trkpt>
      <trkpt lat="45.69398" lon="-1.07473">
        <ele>62.69</ele>
        <time>2015-11-26T15:10:59Z</time>
      </trkpt>
      <trkpt lat="45.69392" lon="-1.07468">
        <ele>59.06</ele>
        <time>2015-11-26T15:11:07Z</time>
      </trkpt>
      <trkpt lat="45.6939" lon="-1.07462">
        <ele>58</ele>
        <time>2015-11-26T15:11:14Z</time>
      </trkpt>
      <trkpt lat="45.69387" lon="-1.07445">
        <ele>60.38</ele>
        <time>2015-11-26T15:11:22Z</time>
      </trkpt>
      <trkpt lat="45.69384" lon="-1.07433">
        <ele>62.98</ele>
        <time>2015-11-26T15:11:29Z</time>
      </trkpt>
      <trkpt lat="45.6938" lon="-1.07417">
        <ele>62.31</ele>
        <time>2015-11-26T15:11:37Z</time>
      </trkpt>
      <trkpt lat="45.6938" lon="-1.07409">
        <ele>58.06</ele>
        <time>2015-11-26T15:11:44Z</time>
      </trkpt>
      <trkpt lat="45.6938" lon="-1.07395">
        <ele>59.07</ele>
        <time>2015-11-26T15:11:52Z</time>
      </trkpt>
      <trkpt lat="45.69379" lon="-1.07383">
        <ele>58.07</ele>
        <time>2015-11-26T15:11:59Z</time>
      </trkpt>
      <trkpt lat="45.6938" lon="-1.07373">
        <ele>56.07</ele>
        <time>2015-11-26T15:12:07Z</time>
      </trkpt>
      <trkpt lat="45.69379" lon="-1.07365">
        <ele>55.02</ele>
        <time>2015-11-26T15:12:14Z</time>
      </trkpt>
      <trkpt lat="45.69377" lon="-1.07343">
        <ele>59.96</ele>
        <time>2015-11-26T15:12:22Z</time>
      </trkpt>
      <trkpt lat="45.69376" lon="-1.07329">
        <ele>61.95</ele>
        <time>2015-11-26T15:12:29Z</time>
      </trkpt>
      <trkpt lat="45.69377" lon="-1.07321">
        <ele>60.97</ele>
        <time>2015-11-26T15:12:36Z</time>
      </trkpt>
      <trkpt lat="45.69376" lon="-1.07309">
        <ele>60</ele>
        <time>2015-11-26T15:12:43Z</time>
      </trkpt>
      <trkpt lat="45.69373" lon="-1.07293">
        <ele>63.43</ele>
        <time>2015-11-26T15:12:51Z</time>
      </trkpt>
      <trkpt lat="45.69371" lon="-1.07282">
        <ele>65</ele>
        <time>2015-11-26T15:12:59Z</time>
      </trkpt>
      <trkpt lat="45.69369" lon="-1.07273">
        <ele>63.77</ele>
        <time>2015-11-26T15:13:06Z</time>
      </trkpt>
      <trkpt lat="45.69364" lon="-1.07257">
        <ele>63.19</ele>
        <time>2015-11-26T15:13:14Z</time>
      </trkpt>
      <trkpt lat="45.69357" lon="-1.07243">
        <ele>66.25</ele>
        <time>2015-11-26T15:13:22Z</time>
      </trkpt>
      <trkpt lat="45.69351" lon="-1.07229">
        <ele>68.73</ele>
        <time>2015-11-26T15:13:30Z</time>
      </trkpt>
      <trkpt lat="45.69347" lon="-1.07221">
        <ele>68.56</ele>
        <time>2015-11-26T15:13:37Z</time>
      </trkpt>
      <trkpt lat="45.69341" lon="-1.07211">
        <ele>69.74</ele>
        <time>2015-11-26T15:13:44Z</time>
      </trkpt>
      <trkpt lat="45.69337" lon="-1.07197">
        <ele>70</ele>
        <time>2015-11-26T15:13:52Z</time>
      </trkpt>
      <trkpt lat="45.69334" lon="-1.07186">
        <ele>71.25</ele>
        <time>2015-11-26T15:13:59Z</time>
      </trkpt>
      <trkpt lat="45.69331" lon="-1.0718">
        <ele>67.29</ele>
        <time>2015-11-26T15:14:06Z</time>
      </trkpt>
      <trkpt lat="45.69327" lon="-1.07168">
        <ele>66.14</ele>
        <time>2015-11-26T15:14:14Z</time>
      </trkpt>
      <trkpt lat="45.6932" lon="-1.07158">
        <ele>68</ele>
        <time>2015-11-26T15:14:22Z</time>
      </trkpt>
      <trkpt lat="45.69316" lon="-1.07155">
        <ele>66.25</ele>
        <time>2015-11-26T15:14:29Z</time>
      </trkpt>
      <trkpt lat="45.69311" lon="-1.07141">
        <ele>65.17</ele>
        <time>2015-11-26T15:14:37Z</time>
      </trkpt>
      <trkpt lat="45.69307" lon="-1.07126">
        <ele>65.75</ele>
        <time>2015-11-26T15:14:44Z</time>
      </trkpt>
      <trkpt lat="45.69303" lon="-1.07117">
        <ele>63.68</ele>
        <time>2015-11-26T15:14:52Z</time>
      </trkpt>
      <trkpt lat="45.69298" lon="-1.07109">
        <ele>61.03</ele>
        <time>2015-11-26T15:14:59Z</time>
      </trkpt>
      <trkpt lat="45.69292" lon="-1.07101">
        <ele>62.67</ele>
        <time>2015-11-26T15:15:06Z</time>
      </trkpt>
      <trkpt lat="45.69284" lon="-1.07091">
        <ele>64.88</ele>
        <time>2015-11-26T15:15:14Z</time>
      </trkpt>
      <trkpt lat="45.69275" lon="-1.07084">
        <ele>67</ele>
        <time>2015-11-26T15:15:22Z</time>
      </trkpt>
      <trkpt lat="45.6927" lon="-1.07076">
        <ele>65.01</ele>
        <time>2015-11-26T15:15:29Z</time>
      </trkpt>
      <trkpt lat="45.69261" lon="-1.07069">
        <ele>65.99</ele>
        <time>2015-11-26T15:15:37Z</time>
      </trkpt>
      <trkpt lat="45.69252" lon="-1.07063">
        <ele>64.37</ele>
        <time>2015-11-26T15:15:44Z</time>
      </trkpt>
      <trkpt lat="45.69246" lon="-1.07055">
        <ele>62.94</ele>
        <time>2015-11-26T15:15:51Z</time>
      </trkpt>
      <trkpt lat="45.69236" lon="-1.07049">
        <ele>64.04</ele>
        <time>2015-11-26T15:15:59Z</time>
      </trkpt>
      <trkpt lat="45.69231" lon="-1.07043">
        <ele>60.05</ele>
        <time>2015-11-26T15:16:07Z</time>
      </trkpt>
      <trkpt lat="45.69226" lon="-1.07033">
        <ele>60.07</ele>
        <time>2015-11-26T15:16:14Z</time>
      </trkpt>
      <trkpt lat="45.69218" lon="-1.07026">
        <ele>61.06</ele>
        <time>2015-11-26T15:16:21Z</time>
      </trkpt>
      <trkpt lat="45.69212" lon="-1.07018">
        <ele>61.99</ele>
        <time>2015-11-26T15:16:29Z</time>
      </trkpt>
      <trkpt lat="45.69204" lon="-1.07013">
        <ele>60.75</ele>
        <time>2015-11-26T15:16:36Z</time>
      </trkpt>
      <trkpt lat="45.6919" lon="-1.06994">
        <ele>63.13</ele>
        <time>2015-11-26T15:17:00Z</time>
      </trkpt>
      <trkpt lat="45.69175" lon="-1.0699">
        <ele>65.81</ele>
        <time>2015-11-26T15:17:08Z</time>
      </trkpt>
      <trkpt lat="45.69173" lon="-1.06991">
        <ele>69.25</ele>
        <time>2015-11-26T15:17:28Z</time>
      </trkpt>
      <trkpt lat="45.69172" lon="-1.06984">
        <ele>70.92</ele>
        <time>2015-11-26T15:17:55Z</time>
      </trkpt>
      <trkpt lat="45.69167" lon="-1.06976">
        <ele>71.75</ele>
        <time>2015-11-26T15:18:02Z</time>
      </trkpt>
      <trkpt lat="45.69157" lon="-1.06971">
        <ele>73.01</ele>
        <time>2015-11-26T15:18:10Z</time>
      </trkpt>
      <trkpt lat="45.6915" lon="-1.06964">
        <ele>70.18</ele>
        <time>2015-11-26T15:18:18Z</time>
      </trkpt>
      <trkpt lat="45.69139" lon="-1.06957">
        <ele>72</ele>
        <time>2015-11-26T15:18:26Z</time>
      </trkpt>
      <trkpt lat="45.6913" lon="-1.06952">
        <ele>72.32</ele>
        <time>2015-11-26T15:18:34Z</time>
      </trkpt>
      <trkpt lat="45.69127" lon="-1.06937">
        <ele>69.98</ele>
        <time>2015-11-26T15:18:42Z</time>
      </trkpt>
      <trkpt lat="45.69123" lon="-1.06924">
        <ele>69.31</ele>
        <time>2015-11-26T15:18:49Z</time>
      </trkpt>
      <trkpt lat="45.69121" lon="-1.06915">
        <ele>70.75</ele>
        <time>2015-11-26T15:18:56Z</time>
      </trkpt>
      <trkpt lat="45.69117" lon="-1.06904">
        <ele>72.19</ele>
        <time>2015-11-26T15:19:04Z</time>
      </trkpt>
      <trkpt lat="45.69116" lon="-1.06894">
        <ele>71.5</ele>
        <time>2015-11-26T15:19:11Z</time>
      </trkpt>
      <trkpt lat="45.69114" lon="-1.0688">
        <ele>70.25</ele>
        <time>2015-11-26T15:19:19Z</time>
      </trkpt>
      <trkpt lat="45.69115" lon="-1.06871">
        <ele>68.79</ele>
        <time>2015-11-26T15:19:26Z</time>
      </trkpt>
      <trkpt lat="45.69117" lon="-1.06854">
        <ele>71.75</ele>
        <time>2015-11-26T15:19:34Z</time>
      </trkpt>
      <trkpt lat="45.69119" lon="-1.06846">
        <ele>72.94</ele>
        <time>2015-11-26T15:19:42Z</time>
      </trkpt>
      <trkpt lat="45.69122" lon="-1.06834">
        <ele>75.18</ele>
        <time>2015-11-26T15:19:50Z</time>
      </trkpt>
      <trkpt lat="45.69127" lon="-1.06821">
        <ele>76.75</ele>
        <time>2015-11-26T15:19:57Z</time>
      </trkpt>
      <trkpt lat="45.69132" lon="-1.06808">
        <ele>74.33</ele>
        <time>2015-11-26T15:20:04Z</time>
      </trkpt>
      <trkpt lat="45.69135" lon="-1.06795">
        <ele>72.27</ele>
        <time>2015-11-26T15:20:11Z</time>
      </trkpt>
      <trkpt lat="45.69136" lon="-1.06782">
        <ele>72.06</ele>
        <time>2015-11-26T15:20:19Z</time>
      </trkpt>
      <trkpt lat="45.69139" lon="-1.0677">
        <ele>69.14</ele>
        <time>2015-11-26T15:20:26Z</time>
      </trkpt>
      <trkpt lat="45.69139" lon="-1.06754">
        <ele>70.75</ele>
        <time>2015-11-26T15:20:33Z</time>
      </trkpt>
      <trkpt lat="45.69138" lon="-1.06746">
        <ele>72</ele>
        <time>2015-11-26T15:20:45Z</time>
      </trkpt>
      <trkpt lat="45.6914" lon="-1.06738">
        <ele>71.82</ele>
        <time>2015-11-26T15:20:55Z</time>
      </trkpt>
      <trkpt lat="45.69141" lon="-1.06719">
        <ele>71.01</ele>
        <time>2015-11-26T15:21:03Z</time>
      </trkpt>
      <trkpt lat="45.69144" lon="-1.06707">
        <ele>68.94</ele>
        <time>2015-11-26T15:21:11Z</time>
      </trkpt>
      <trkpt lat="45.69144" lon="-1.06692">
        <ele>69</ele>
        <time>2015-11-26T15:21:18Z</time>
      </trkpt>
      <trkpt lat="45.69146" lon="-1.06685">
        <ele>68.75</ele>
        <time>2015-11-26T15:21:26Z</time>
      </trkpt>
      <trkpt lat="45.69148" lon="-1.06676">
        <ele>69.02</ele>
        <time>2015-11-26T15:21:37Z</time>
      </trkpt>
      <trkpt lat="45.6915" lon="-1.06666">
        <ele>68</ele>
        <time>2015-11-26T15:21:46Z</time>
      </trkpt>
      <trkpt lat="45.69161" lon="-1.06641">
        <ele>69.06</ele>
        <time>2015-11-26T15:22:03Z</time>
      </trkpt>
      <trkpt lat="45.6919" lon="-1.06575">
        <ele>66.05</ele>
        <time>2015-11-26T15:22:39Z</time>
      </trkpt>
      <trkpt lat="45.69197" lon="-1.06551">
        <ele>64.02</ele>
        <time>2015-11-26T15:22:47Z</time>
      </trkpt>
      <trkpt lat="45.69205" lon="-1.06521">
        <ele>56.25</ele>
        <time>2015-11-26T15:23:21Z</time>
      </trkpt>
      <trkpt lat="45.69211" lon="-1.06487">
        <ele>64.41</ele>
        <time>2015-11-26T15:23:28Z</time>
      </trkpt>
      <trkpt lat="45.6921" lon="-1.06468">
        <ele>47.45</ele>
        <time>2015-11-26T15:24:05Z</time>
      </trkpt>
      <trkpt lat="45.69171" lon="-1.06477">
        <ele>64.81</ele>
        <time>2015-11-26T15:24:13Z</time>
      </trkpt>
      <trkpt lat="45.69156" lon="-1.06479">
        <ele>67.46</ele>
        <time>2015-11-26T15:24:20Z</time>
      </trkpt>
      <trkpt lat="45.69148" lon="-1.0648">
        <ele>66.16</ele>
        <time>2015-11-26T15:24:28Z</time>
      </trkpt>
      <trkpt lat="45.69139" lon="-1.06483">
        <ele>68.98</ele>
        <time>2015-11-26T15:24:35Z</time>
      </trkpt>
      <trkpt lat="45.6913" lon="-1.06483">
        <ele>69</ele>
        <time>2015-11-26T15:24:43Z</time>
      </trkpt>
      <trkpt lat="45.69121" lon="-1.06481">
        <ele>69.44</ele>
        <time>2015-11-26T15:25:17Z</time>
      </trkpt>
      <trkpt lat="45.69116" lon="-1.06481">
        <ele>70.98</ele>
        <time>2015-11-26T15:25:29Z</time>
      </trkpt>
      <trkpt lat="45.69112" lon="-1.06475">
        <ele>69.55</ele>
        <time>2015-11-26T15:25:50Z</time>
      </trkpt>
      <trkpt lat="45.6911" lon="-1.06461">
        <ele>68.66</ele>
        <time>2015-11-26T15:25:57Z</time>
      </trkpt>
      <trkpt lat="45.69106" lon="-1.06446">
        <ele>67.88</ele>
        <time>2015-11-26T15:26:05Z</time>
      </trkpt>
      <trkpt lat="45.69102" lon="-1.06437">
        <ele>66</ele>
        <time>2015-11-26T15:26:12Z</time>
      </trkpt>
      <trkpt lat="45.691" lon="-1.06427">
        <ele>67.68</ele>
        <time>2015-11-26T15:26:19Z</time>
      </trkpt>
      <trkpt lat="45.69095" lon="-1.06414">
        <ele>67.98</ele>
        <time>2015-11-26T15:26:27Z</time>
      </trkpt>
      <trkpt lat="45.69091" lon="-1.06401">
        <ele>67</ele>
        <time>2015-11-26T15:26:35Z</time>
      </trkpt>
      <trkpt lat="45.69086" lon="-1.0639">
        <ele>68.19</ele>
        <time>2015-11-26T15:26:42Z</time>
      </trkpt>
      <trkpt lat="45.69081" lon="-1.06376">
        <ele>67.19</ele>
        <time>2015-11-26T15:26:50Z</time>
      </trkpt>
      <trkpt lat="45.69075" lon="-1.06366">
        <ele>67.94</ele>
        <time>2015-11-26T15:26:58Z</time>
      </trkpt>
      <trkpt lat="45.69071" lon="-1.06355">
        <ele>68.23</ele>
        <time>2015-11-26T15:27:05Z</time>
      </trkpt>
      <trkpt lat="45.69069" lon="-1.06346">
        <ele>68</ele>
        <time>2015-11-26T15:27:12Z</time>
      </trkpt>
      <trkpt lat="45.69063" lon="-1.06334">
        <ele>69.06</ele>
        <time>2015-11-26T15:27:20Z</time>
      </trkpt>
      <trkpt lat="45.69061" lon="-1.06326">
        <ele>69.83</ele>
        <time>2015-11-26T15:27:27Z</time>
      </trkpt>
      <trkpt lat="45.69055" lon="-1.06312">
        <ele>70.99</ele>
        <time>2015-11-26T15:27:34Z</time>
      </trkpt>
      <trkpt lat="45.69052" lon="-1.06298">
        <ele>68.08</ele>
        <time>2015-11-26T15:27:42Z</time>
      </trkpt>
      <trkpt lat="45.69048" lon="-1.06287">
        <ele>69.93</ele>
        <time>2015-11-26T15:27:49Z</time>
      </trkpt>
      <trkpt lat="45.69045" lon="-1.06275">
        <ele>69.2</ele>
        <time>2015-11-26T15:27:57Z</time>
      </trkpt>
      <trkpt lat="45.69042" lon="-1.06265">
        <ele>69</ele>
        <time>2015-11-26T15:28:05Z</time>
      </trkpt>
      <trkpt lat="45.6904" lon="-1.06253">
        <ele>70.06</ele>
        <time>2015-11-26T15:28:13Z</time>
      </trkpt>
      <trkpt lat="45.69044" lon="-1.06238">
        <ele>68.06</ele>
        <time>2015-11-26T15:28:20Z</time>
      </trkpt>
      <trkpt lat="45.69044" lon="-1.06227">
        <ele>69.73</ele>
        <time>2015-11-26T15:28:27Z</time>
      </trkpt>
      <trkpt lat="45.69044" lon="-1.06215">
        <ele>67.25</ele>
        <time>2015-11-26T15:28:35Z</time>
      </trkpt>
      <trkpt lat="45.69043" lon="-1.06204">
        <ele>64.25</ele>
        <time>2015-11-26T15:28:43Z</time>
      </trkpt>
      <trkpt lat="45.69038" lon="-1.06189">
        <ele>66.75</ele>
        <time>2015-11-26T15:28:51Z</time>
      </trkpt>
      <trkpt lat="45.69036" lon="-1.06177">
        <ele>69.92</ele>
        <time>2015-11-26T15:28:58Z</time>
      </trkpt>
      <trkpt lat="45.69033" lon="-1.06169">
        <ele>69.75</ele>
        <time>2015-11-26T15:29:06Z</time>
      </trkpt>
      <trkpt lat="45.6903" lon="-1.06161">
        <ele>71</ele>
        <time>2015-11-26T15:29:28Z</time>
      </trkpt>
      <trkpt lat="45.69028" lon="-1.06145">
        <ele>68.78</ele>
        <time>2015-11-26T15:29:36Z</time>
      </trkpt>
      <trkpt lat="45.69026" lon="-1.06129">
        <ele>68.2</ele>
        <time>2015-11-26T15:29:44Z</time>
      </trkpt>
      <trkpt lat="45.69023" lon="-1.06114">
        <ele>68.81</ele>
        <time>2015-11-26T15:29:52Z</time>
      </trkpt>
      <trkpt lat="45.69025" lon="-1.06098">
        <ele>69.25</ele>
        <time>2015-11-26T15:29:59Z</time>
      </trkpt>
      <trkpt lat="45.69022" lon="-1.0609">
        <ele>72.68</ele>
        <time>2015-11-26T15:30:06Z</time>
      </trkpt>
      <trkpt lat="45.69024" lon="-1.06077">
        <ele>74.73</ele>
        <time>2015-11-26T15:30:14Z</time>
      </trkpt>
      <trkpt lat="45.69028" lon="-1.06064">
        <ele>75.57</ele>
        <time>2015-11-26T15:30:21Z</time>
      </trkpt>
      <trkpt lat="45.69031" lon="-1.06057">
        <ele>77.01</ele>
        <time>2015-11-26T15:30:35Z</time>
      </trkpt>
      <trkpt lat="45.69036" lon="-1.0606">
        <ele>74.75</ele>
        <time>2015-11-26T15:30:50Z</time>
      </trkpt>
      <trkpt lat="45.69044" lon="-1.06056">
        <ele>76.99</ele>
        <time>2015-11-26T15:30:57Z</time>
      </trkpt>
      <trkpt lat="45.69044" lon="-1.06044">
        <ele>76.99</ele>
        <time>2015-11-26T15:31:04Z</time>
      </trkpt>
      <trkpt lat="45.69039" lon="-1.06039">
        <ele>67</ele>
        <time>2015-11-26T15:32:40Z</time>
      </trkpt>
      <trkpt lat="45.69031" lon="-1.06024">
        <ele>67.92</ele>
        <time>2015-11-26T15:32:48Z</time>
      </trkpt>
      <trkpt lat="45.69028" lon="-1.06011">
        <ele>65.08</ele>
        <time>2015-11-26T15:32:55Z</time>
      </trkpt>
      <trkpt lat="45.69025" lon="-1.06001">
        <ele>66.5</ele>
        <time>2015-11-26T15:33:03Z</time>
      </trkpt>
      <trkpt lat="45.69023" lon="-1.05995">
        <ele>69.01</ele>
        <time>2015-11-26T15:33:14Z</time>
      </trkpt>
      <trkpt lat="45.6902" lon="-1.0599">
        <ele>69.95</ele>
        <time>2015-11-26T15:33:22Z</time>
      </trkpt>
      <trkpt lat="45.69014" lon="-1.05966">
        <ele>72.73</ele>
        <time>2015-11-26T15:33:29Z</time>
      </trkpt>
      <trkpt lat="45.69011" lon="-1.05954">
        <ele>68.99</ele>
        <time>2015-11-26T15:33:36Z</time>
      </trkpt>
      <trkpt lat="45.69007" lon="-1.05934">
        <ele>68.99</ele>
        <time>2015-11-26T15:33:44Z</time>
      </trkpt>
      <trkpt lat="45.69007" lon="-1.05925">
        <ele>68.42</ele>
        <time>2015-11-26T15:33:51Z</time>
      </trkpt>
      <trkpt lat="45.69007" lon="-1.05915">
        <ele>68.95</ele>
        <time>2015-11-26T15:33:59Z</time>
      </trkpt>
      <trkpt lat="45.69007" lon="-1.05904">
        <ele>67.99</ele>
        <time>2015-11-26T15:34:06Z</time>
      </trkpt>
      <trkpt lat="45.69007" lon="-1.05896">
        <ele>64.25</ele>
        <time>2015-11-26T15:34:14Z</time>
      </trkpt>
      <trkpt lat="45.69007" lon="-1.05878">
        <ele>65.99</ele>
        <time>2015-11-26T15:34:21Z</time>
      </trkpt>
      <trkpt lat="45.69007" lon="-1.05858">
        <ele>74.99</ele>
        <time>2015-11-26T15:34:28Z</time>
      </trkpt>
      <trkpt lat="45.69009" lon="-1.05849">
        <ele>67.21</ele>
        <time>2015-11-26T15:34:36Z</time>
      </trkpt>
      <trkpt lat="45.69009" lon="-1.05839">
        <ele>70</ele>
        <time>2015-11-26T15:34:44Z</time>
      </trkpt>
      <trkpt lat="45.69009" lon="-1.05832">
        <ele>69.75</ele>
        <time>2015-11-26T15:34:58Z</time>
      </trkpt>
      <trkpt lat="45.69008" lon="-1.05814">
        <ele>70.91</ele>
        <time>2015-11-26T15:35:05Z</time>
      </trkpt>
      <trkpt lat="45.6902" lon="-1.05803">
        <ele>68.95</ele>
        <time>2015-11-26T15:35:13Z</time>
      </trkpt>
      <trkpt lat="45.69022" lon="-1.05793">
        <ele>73.48</ele>
        <time>2015-11-26T15:35:21Z</time>
      </trkpt>
      <trkpt lat="45.69023" lon="-1.05776">
        <ele>72.11</ele>
        <time>2015-11-26T15:35:29Z</time>
      </trkpt>
      <trkpt lat="45.69026" lon="-1.05762">
        <ele>70.96</ele>
        <time>2015-11-26T15:35:36Z</time>
      </trkpt>
      <trkpt lat="45.6903" lon="-1.05754">
        <ele>70.99</ele>
        <time>2015-11-26T15:35:43Z</time>
      </trkpt>
      <trkpt lat="45.6904" lon="-1.05747">
        <ele>71.85</ele>
        <time>2015-11-26T15:35:51Z</time>
      </trkpt>
      <trkpt lat="45.69044" lon="-1.05737">
        <ele>70.07</ele>
        <time>2015-11-26T15:35:59Z</time>
      </trkpt>
      <trkpt lat="45.6905" lon="-1.05734">
        <ele>67.26</ele>
        <time>2015-11-26T15:36:06Z</time>
      </trkpt>
      <trkpt lat="45.69061" lon="-1.05728">
        <ele>70.24</ele>
        <time>2015-11-26T15:36:13Z</time>
      </trkpt>
      <trkpt lat="45.69068" lon="-1.05727">
        <ele>69.72</ele>
        <time>2015-11-26T15:36:21Z</time>
      </trkpt>
      <trkpt lat="45.69075" lon="-1.0572">
        <ele>71</ele>
        <time>2015-11-26T15:36:29Z</time>
      </trkpt>
      <trkpt lat="45.69082" lon="-1.0572">
        <ele>73.07</ele>
        <time>2015-11-26T15:36:36Z</time>
      </trkpt>
      <trkpt lat="45.69087" lon="-1.05713">
        <ele>75</ele>
        <time>2015-11-26T15:36:43Z</time>
      </trkpt>
      <trkpt lat="45.69091" lon="-1.05706">
        <ele>74</ele>
        <time>2015-11-26T15:36:50Z</time>
      </trkpt>
      <trkpt lat="45.691" lon="-1.05694">
        <ele>74</ele>
        <time>2015-11-26T15:36:58Z</time>
      </trkpt>
      <trkpt lat="45.69101" lon="-1.05685">
        <ele>71.19</ele>
        <time>2015-11-26T15:37:05Z</time>
      </trkpt>
      <trkpt lat="45.69104" lon="-1.05679">
        <ele>69.77</ele>
        <time>2015-11-26T15:37:13Z</time>
      </trkpt>
      <trkpt lat="45.69107" lon="-1.05674">
        <ele>68.77</ele>
        <time>2015-11-26T15:37:22Z</time>
      </trkpt>
      <trkpt lat="45.69113" lon="-1.05663">
        <ele>73.7</ele>
        <time>2015-11-26T15:37:30Z</time>
      </trkpt>
      <trkpt lat="45.69115" lon="-1.05651">
        <ele>76.26</ele>
        <time>2015-11-26T15:37:37Z</time>
      </trkpt>
      <trkpt lat="45.69108" lon="-1.05641">
        <ele>75.31</ele>
        <time>2015-11-26T15:37:45Z</time>
      </trkpt>
      <trkpt lat="45.69104" lon="-1.05636">
        <ele>76</ele>
        <time>2015-11-26T15:37:53Z</time>
      </trkpt>
      <trkpt lat="45.69097" lon="-1.05627">
        <ele>72.22</ele>
        <time>2015-11-26T15:38:01Z</time>
      </trkpt>
      <trkpt lat="45.6909" lon="-1.05613">
        <ele>74.04</ele>
        <time>2015-11-26T15:38:08Z</time>
      </trkpt>
      <trkpt lat="45.69083" lon="-1.05598">
        <ele>76</ele>
        <time>2015-11-26T15:38:16Z</time>
      </trkpt>
      <trkpt lat="45.6908" lon="-1.05592">
        <ele>76.28</ele>
        <time>2015-11-26T15:38:24Z</time>
      </trkpt>
      <trkpt lat="45.69075" lon="-1.05579">
        <ele>74.19</ele>
        <time>2015-11-26T15:38:31Z</time>
      </trkpt>
      <trkpt lat="45.69072" lon="-1.05568">
        <ele>72.96</ele>
        <time>2015-11-26T15:38:38Z</time>
      </trkpt>
      <trkpt lat="45.69069" lon="-1.05558">
        <ele>71.98</ele>
        <time>2015-11-26T15:38:46Z</time>
      </trkpt>
      <trkpt lat="45.69065" lon="-1.05543">
        <ele>74</ele>
        <time>2015-11-26T15:38:54Z</time>
      </trkpt>
      <trkpt lat="45.69061" lon="-1.05528">
        <ele>72</ele>
        <time>2015-11-26T15:39:01Z</time>
      </trkpt>
      <trkpt lat="45.69058" lon="-1.05519">
        <ele>68.78</ele>
        <time>2015-11-26T15:39:09Z</time>
      </trkpt>
      <trkpt lat="45.69068" lon="-1.05505">
        <ele>74.95</ele>
        <time>2015-11-26T15:39:23Z</time>
      </trkpt>
      <trkpt lat="45.69063" lon="-1.05474">
        <ele>77.68</ele>
        <time>2015-11-26T15:40:12Z</time>
      </trkpt>
      <trkpt lat="45.69056" lon="-1.05439">
        <ele>74.33</ele>
        <time>2015-11-26T15:40:19Z</time>
      </trkpt>
      <trkpt lat="45.69054" lon="-1.05432">
        <ele>75.88</ele>
        <time>2015-11-26T15:40:50Z</time>
      </trkpt>
      <trkpt lat="45.69051" lon="-1.05418">
        <ele>75</ele>
        <time>2015-11-26T15:40:57Z</time>
      </trkpt>
      <trkpt lat="45.69051" lon="-1.0541">
        <ele>74.18</ele>
        <time>2015-11-26T15:41:05Z</time>
      </trkpt>
      <trkpt lat="45.69049" lon="-1.05398">
        <ele>75.75</ele>
        <time>2015-11-26T15:41:12Z</time>
      </trkpt>
      <trkpt lat="45.69047" lon="-1.0539">
        <ele>71.07</ele>
        <time>2015-11-26T15:41:20Z</time>
      </trkpt>
      <trkpt lat="45.69044" lon="-1.05377">
        <ele>72.73</ele>
        <time>2015-11-26T15:41:27Z</time>
      </trkpt>
      <trkpt lat="45.6904" lon="-1.05353">
        <ele>75.94</ele>
        <time>2015-11-26T15:42:16Z</time>
      </trkpt>
      <trkpt lat="45.69036" lon="-1.05339">
        <ele>75.74</ele>
        <time>2015-11-26T15:42:23Z</time>
      </trkpt>
      <trkpt lat="45.69088" lon="-1.05299">
        <ele>28</ele>
      </trkpt>
      <trkpt lat="45.69098" lon="-1.053">
        <ele>73</ele>
        <time>2015-11-26T15:43:31Z</time>
      </trkpt>
      <trkpt lat="45.69111" lon="-1.05306">
        <ele>73</ele>
        <time>2015-11-26T15:43:32Z</time>
      </trkpt>
    </trkseg>
  </trk>
</gpx>